N900SB KVNY-PHNL
Flight info
| Callsign | N900SB |
|---|---|
| Flight time | N/A |
| Altitude | 43000 |
| Route | CANOG3 FIM RZS DINTY R576 DENNS INOYI1 |
| Aircraft | C700/M-SBDGHM1RWXY/LB2 |
Departure
| Time | 2026-04-28 21:03 |
|---|---|
| Airport | Van Nuys Airport (KVNY) |
Arrival
| Time | N/A |
|---|---|
| Airport | Daniel K. Inouye International Airport (PHNL) |
| Time | Latitude | Longitude | Altitude | Speed | Heading |
|---|---|---|---|---|---|
| 2026-04-28 20:42 | 34.21867 | -118.49302 | 804 ft | 0 kts | 109° |
| 2026-04-28 21:00 | 34.21867 | -118.49267 | 804 ft | 9 kts | 75° |
| 2026-04-28 21:01 | 34.21876 | -118.49188 | 803 ft | 10 kts | 86° |
| 2026-04-28 21:01 | 34.21853 | -118.49126 | 802 ft | 6 kts | 139° |
| 2026-04-28 21:01 | 34.21843 | -118.49120 | 802 ft | 0 kts | 175° |
| 2026-04-28 21:02 | 34.21800 | -118.49115 | 801 ft | 35 kts | 174° |
| 2026-04-28 21:02 | 34.21239 | -118.49062 | 788 ft | 123 kts | 174° |
| 2026-04-28 21:02 | 34.20211 | -118.48953 | 1097 ft | 166 kts | 176° |
| 2026-04-28 21:03 | 34.18993 | -118.48886 | 1671 ft | 194 kts | 179° |
| 2026-04-28 21:03 | 34.17469 | -118.48818 | 1726 ft | 229 kts | 182° |
| 2026-04-28 21:03 | 34.16098 | -118.49352 | 1684 ft | 195 kts | 216° |
| 2026-04-28 21:03 | 34.15175 | -118.50411 | 1684 ft | 172 kts | 224° |
| 2026-04-28 21:04 | 34.14392 | -118.51394 | 1698 ft | 153 kts | 225° |
| 2026-04-28 21:04 | 34.13657 | -118.52279 | 1657 ft | 143 kts | 226° |
| 2026-04-28 21:04 | 34.13343 | -118.52649 | 1592 ft | 0 kts | 221° |
| 2026-04-28 21:04 | 34.21867 | -118.49302 | 1591 ft | 0 kts | 109° |
| 2026-04-28 21:25 | 34.21862 | -118.49286 | 804 ft | 6 kts | 109° |
| 2026-04-28 21:25 | 34.21866 | -118.49238 | 803 ft | 9 kts | 71° |
| 2026-04-28 21:25 | 34.21867 | -118.49148 | 803 ft | 8 kts | 109° |
| 2026-04-28 21:25 | 34.21846 | -118.49123 | 802 ft | 0 kts | 166° |
| 2026-04-28 21:26 | 34.21845 | -118.49123 | 802 ft | 1 kts | 166° |
| 2026-04-28 21:26 | 34.21554 | -118.49091 | 793 ft | 86 kts | 175° |
| 2026-04-28 21:26 | 34.20699 | -118.49005 | 826 ft | 156 kts | 175° |
| 2026-04-28 21:26 | 34.19543 | -118.48908 | 1378 ft | 175 kts | 176° |
| 2026-04-28 21:27 | 34.18263 | -118.48773 | 2003 ft | 196 kts | 178° |
| 2026-04-28 21:27 | 34.16843 | -118.48632 | 2730 ft | 211 kts | 176° |
| 2026-04-28 21:27 | 34.15298 | -118.48459 | 3189 ft | 236 kts | 175° |
| 2026-04-28 21:27 | 34.13593 | -118.48104 | 3353 ft | 263 kts | 159° |
| 2026-04-28 21:28 | 34.12065 | -118.46745 | 3412 ft | 287 kts | 129° |
| 2026-04-28 21:28 | 34.11200 | -118.44518 | 3476 ft | 304 kts | 101° |
| 2026-04-28 21:28 | 34.11270 | -118.41941 | 3477 ft | 318 kts | 75° |
| 2026-04-28 21:28 | 34.12384 | -118.39495 | 3845 ft | 353 kts | 48° |
| 2026-04-28 21:29 | 34.14423 | -118.37658 | 4724 ft | 383 kts | 27° |
| 2026-04-28 21:29 | 34.16857 | -118.36788 | 5468 ft | 412 kts | 9° |
| 2026-04-28 21:29 | 34.18876 | -118.36693 | 5970 ft | 433 kts | 359° |
| 2026-04-28 21:29 | 34.21976 | -118.36984 | 6579 ft | 461 kts | 356° |
| 2026-04-28 21:30 | 34.25258 | -118.37456 | 7101 ft | 487 kts | 352° |
| 2026-04-28 21:30 | 34.28586 | -118.38413 | 7911 ft | 500 kts | 338° |
| 2026-04-28 21:30 | 34.31561 | -118.40653 | 8681 ft | 511 kts | 317° |
| 2026-04-28 21:30 | 34.33769 | -118.44021 | 9784 ft | 515 kts | 298° |
| 2026-04-28 21:31 | 34.35001 | -118.48078 | 10889 ft | 517 kts | 281° |
| 2026-04-28 21:31 | 34.35131 | -118.52416 | 12053 ft | 518 kts | 263° |
| 2026-04-28 21:31 | 34.34141 | -118.56584 | 13234 ft | 518 kts | 246° |
| 2026-04-28 21:31 | 34.32174 | -118.60180 | 14250 ft | 522 kts | 229° |
| 2026-04-28 21:32 | 34.29678 | -118.63344 | 15575 ft | 513 kts | 227° |
| 2026-04-28 21:32 | 34.27216 | -118.66333 | 17573 ft | 491 kts | 228° |
| 2026-04-28 21:32 | 34.25305 | -118.69719 | 18797 ft | 490 kts | 243° |
| 2026-04-28 21:32 | 34.24267 | -118.73572 | 18773 ft | 471 kts | 259° |
| 2026-04-28 21:33 | 34.24190 | -118.77550 | 17653 ft | 475 kts | 274° |
| 2026-04-28 21:33 | 34.25076 | -118.81335 | 15781 ft | 467 kts | 291° |
| 2026-04-28 21:33 | 34.26880 | -118.84596 | 13605 ft | 474 kts | 311° |
| 2026-04-28 21:33 | 34.29508 | -118.86843 | 13100 ft | 444 kts | 328° |
| 2026-04-28 21:34 | 34.32045 | -118.88599 | 13398 ft | 391 kts | 321° |
| 2026-04-28 21:34 | 34.33912 | -118.90690 | 14146 ft | 344 kts | 308° |
| 2026-04-28 21:34 | 34.35264 | -118.92898 | 14804 ft | 317 kts | 297° |
| 2026-04-28 21:34 | 34.36237 | -118.95294 | 15517 ft | 321 kts | 288° |
| 2026-04-28 21:35 | 34.36974 | -118.97839 | 16275 ft | 319 kts | 287° |
| 2026-04-28 21:35 | 34.37754 | -119.00367 | 17027 ft | 322 kts | 285° |
| 2026-04-28 21:35 | 34.38380 | -119.02976 | 17814 ft | 323 kts | 279° |
| 2026-04-28 21:35 | 34.38774 | -119.05646 | 18579 ft | 321 kts | 275° |
| 2026-04-28 21:36 | 34.39159 | -119.08306 | 19289 ft | 321 kts | 278° |
| 2026-04-28 21:36 | 34.39638 | -119.10955 | 19990 ft | 323 kts | 279° |
| 2026-04-28 21:36 | 34.40132 | -119.13615 | 20732 ft | 323 kts | 278° |
| 2026-04-28 21:36 | 34.40590 | -119.16280 | 21502 ft | 324 kts | 278° |
| 2026-04-28 21:37 | 34.41042 | -119.18963 | 22281 ft | 327 kts | 278° |
| 2026-04-28 21:37 | 34.41512 | -119.21669 | 23130 ft | 328 kts | 278° |
| 2026-04-28 21:37 | 34.41980 | -119.24373 | 23925 ft | 329 kts | 278° |
| 2026-04-28 21:37 | 34.42451 | -119.27101 | 24653 ft | 332 kts | 278° |
| 2026-04-28 21:38 | 34.42924 | -119.29853 | 25395 ft | 335 kts | 277° |
| 2026-04-28 21:38 | 34.43374 | -119.32476 | 26119 ft | 337 kts | 277° |
| 2026-04-28 21:38 | 34.43854 | -119.35265 | 26926 ft | 338 kts | 277° |
| 2026-04-28 21:38 | 34.44333 | -119.38055 | 27708 ft | 339 kts | 277° |
| 2026-04-28 21:39 | 34.44813 | -119.40863 | 28549 ft | 339 kts | 277° |
| 2026-04-28 21:39 | 34.45291 | -119.43657 | 29371 ft | 339 kts | 276° |
| 2026-04-28 21:39 | 34.45766 | -119.46453 | 30210 ft | 339 kts | 276° |
| 2026-04-28 21:39 | 34.46246 | -119.49249 | 30932 ft | 338 kts | 275° |
| 2026-04-28 21:40 | 34.46719 | -119.52027 | 31670 ft | 336 kts | 274° |
| 2026-04-28 21:40 | 34.47189 | -119.54792 | 32368 ft | 334 kts | 273° |
| 2026-04-28 21:40 | 34.47655 | -119.57540 | 33057 ft | 331 kts | 272° |
| 2026-04-28 21:40 | 34.48117 | -119.60263 | 33763 ft | 328 kts | 271° |
| 2026-04-28 21:41 | 34.48571 | -119.62926 | 34420 ft | 325 kts | 271° |
| 2026-04-28 21:41 | 34.49025 | -119.65599 | 34977 ft | 322 kts | 271° |
| 2026-04-28 21:41 | 34.49463 | -119.68251 | 35513 ft | 319 kts | 270° |
| 2026-04-28 21:41 | 34.49853 | -119.70871 | 36029 ft | 312 kts | 267° |
| 2026-04-28 21:42 | 34.50025 | -119.73453 | 36583 ft | 303 kts | 262° |
| 2026-04-28 21:42 | 34.49995 | -119.75974 | 37139 ft | 295 kts | 258° |
| 2026-04-28 21:42 | 34.49776 | -119.78414 | 37706 ft | 288 kts | 254° |
| 2026-04-28 21:42 | 34.49381 | -119.80777 | 38229 ft | 282 kts | 250° |
| 2026-04-28 21:43 | 34.48828 | -119.83033 | 38712 ft | 277 kts | 246° |
| 2026-04-28 21:43 | 34.48368 | -119.84501 | 38964 ft | 274 kts | 243° |
| 2026-04-28 21:43 | 34.47618 | -119.86611 | 39297 ft | 272 kts | 243° |
| 2026-04-28 21:43 | 34.46885 | -119.88718 | 39585 ft | 271 kts | 244° |
| 2026-04-28 21:44 | 34.46156 | -119.90817 | 39840 ft | 270 kts | 244° |
| 2026-04-28 21:44 | 34.45417 | -119.92906 | 40086 ft | 270 kts | 244° |
| 2026-04-28 21:44 | 34.44689 | -119.94976 | 40318 ft | 270 kts | 244° |
| 2026-04-28 21:44 | 34.43955 | -119.97075 | 40536 ft | 271 kts | 244° |
| 2026-04-28 21:45 | 34.43224 | -119.99155 | 40937 ft | 263 kts | 244° |
| 2026-04-28 21:45 | 34.42520 | -120.01156 | 41441 ft | 253 kts | 245° |
| 2026-04-28 21:45 | 34.41842 | -120.03083 | 41855 ft | 245 kts | 245° |
| 2026-04-28 21:45 | 34.41181 | -120.04957 | 42149 ft | 240 kts | 245° |
| 2026-04-28 21:46 | 34.40530 | -120.06801 | 42377 ft | 237 kts | 245° |
| 2026-04-28 21:46 | 34.39887 | -120.08627 | 42547 ft | 235 kts | 245° |
| 2026-04-28 21:46 | 34.39247 | -120.10440 | 42689 ft | 234 kts | 245° |
| 2026-04-28 21:46 | 34.38602 | -120.12265 | 42807 ft | 236 kts | 245° |
| 2026-04-28 21:47 | 34.37953 | -120.14103 | 42943 ft | 239 kts | 245° |
| 2026-04-28 21:47 | 34.37296 | -120.15962 | 43090 ft | 241 kts | 245° |
| 2026-04-28 21:47 | 34.36630 | -120.17847 | 43118 ft | 247 kts | 245° |
| 2026-04-28 21:47 | 34.35953 | -120.19758 | 43133 ft | 252 kts | 246° |
| 2026-04-28 21:48 | 34.35257 | -120.21725 | 43135 ft | 256 kts | 246° |
| 2026-04-28 21:48 | 34.34551 | -120.23718 | 43133 ft | 259 kts | 246° |
| 2026-04-28 21:48 | 34.33833 | -120.25742 | 43128 ft | 263 kts | 246° |
| 2026-04-28 21:48 | 34.33107 | -120.27790 | 43123 ft | 267 kts | 245° |
| 2026-04-28 21:49 | 34.32369 | -120.29869 | 43138 ft | 271 kts | 246° |
| 2026-04-28 21:49 | 34.31618 | -120.31982 | 43138 ft | 275 kts | 246° |
| 2026-04-28 21:49 | 34.30857 | -120.34124 | 43140 ft | 279 kts | 246° |
| 2026-04-28 21:49 | 34.30083 | -120.36300 | 43143 ft | 283 kts | 246° |
| 2026-04-28 21:50 | 34.29298 | -120.38505 | 43144 ft | 289 kts | 246° |
| 2026-04-28 21:50 | 34.28503 | -120.40737 | 43151 ft | 297 kts | 245° |
| 2026-04-28 21:50 | 34.26823 | -120.45448 | 43171 ft | 313 kts | 245° |
| 2026-04-28 21:51 | 34.25053 | -120.50405 | 43212 ft | 328 kts | 245° |
| 2026-04-28 21:51 | 34.23197 | -120.55594 | 43255 ft | 344 kts | 245° |
| 2026-04-28 21:52 | 34.21254 | -120.61018 | 43297 ft | 359 kts | 246° |
| 2026-04-28 21:52 | 34.19232 | -120.66653 | 43591 ft | 368 kts | 246° |
| 2026-04-28 21:53 | 34.18208 | -120.69503 | 43827 ft | 370 kts | 246° |
| 2026-04-28 21:53 | 34.17181 | -120.72358 | 44081 ft | 372 kts | 246° |
| 2026-04-28 21:53 | 34.16159 | -120.75196 | 44329 ft | 373 kts | 246° |
| 2026-04-28 21:53 | 34.15119 | -120.78083 | 44577 ft | 375 kts | 246° |
| 2026-04-28 21:54 | 34.14076 | -120.80976 | 44817 ft | 377 kts | 246° |
| 2026-04-28 21:54 | 34.13026 | -120.83883 | 45072 ft | 377 kts | 246° |
| 2026-04-28 21:54 | 34.10916 | -120.89721 | 45138 ft | 382 kts | 246° |
| 2026-04-28 21:55 | 34.08780 | -120.95622 | 45154 ft | 385 kts | 246° |
| 2026-04-28 21:55 | 34.06618 | -121.01581 | 45152 ft | 389 kts | 246° |
| 2026-04-28 21:56 | 34.04447 | -121.07555 | 45154 ft | 393 kts | 246° |
| 2026-04-28 21:56 | 34.02239 | -121.13617 | 45159 ft | 396 kts | 246° |
| 2026-04-28 21:57 | 34.00008 | -121.19734 | 45160 ft | 400 kts | 246° |
| 2026-04-28 21:57 | 33.97758 | -121.25892 | 45160 ft | 403 kts | 245° |
| 2026-04-28 21:58 | 33.95485 | -121.32094 | 45163 ft | 406 kts | 245° |
| 2026-04-28 21:58 | 33.93194 | -121.38343 | 45166 ft | 409 kts | 245° |
| 2026-04-28 21:59 | 33.90896 | -121.44594 | 45165 ft | 412 kts | 245° |
| 2026-04-28 22:00 | 33.87394 | -121.54097 | 45164 ft | 416 kts | 245° |
| 2026-04-28 22:00 | 33.85030 | -121.60497 | 45166 ft | 419 kts | 245° |
| 2026-04-28 22:01 | 33.82650 | -121.66927 | 45173 ft | 422 kts | 245° |
| 2026-04-28 22:01 | 33.80268 | -121.73352 | 45171 ft | 424 kts | 245° |
| 2026-04-28 22:02 | 33.77849 | -121.79862 | 45180 ft | 427 kts | 245° |
| 2026-04-28 22:02 | 33.75416 | -121.86399 | 45181 ft | 430 kts | 245° |
| 2026-04-28 22:03 | 33.72961 | -121.92979 | 45178 ft | 432 kts | 245° |
| 2026-04-28 22:03 | 33.70505 | -121.99546 | 45183 ft | 426 kts | 244° |
| 2026-04-28 22:04 | 33.68111 | -122.05945 | 45168 ft | 420 kts | 244° |
| 2026-04-28 22:04 | 33.65705 | -122.12352 | 45171 ft | 422 kts | 244° |
| 2026-04-28 22:05 | 33.63282 | -122.18802 | 45182 ft | 424 kts | 244° |
| 2026-04-28 22:05 | 33.60844 | -122.25271 | 45185 ft | 426 kts | 244° |
| 2026-04-28 22:06 | 33.58389 | -122.31777 | 45190 ft | 428 kts | 244° |
| 2026-04-28 22:06 | 33.55922 | -122.38300 | 45187 ft | 430 kts | 244° |
| 2026-04-28 22:07 | 33.53455 | -122.44813 | 45187 ft | 432 kts | 244° |
| 2026-04-28 22:07 | 33.50961 | -122.51380 | 45191 ft | 432 kts | 244° |
| 2026-04-28 22:08 | 33.48535 | -122.57959 | 45189 ft | 431 kts | 248° |
| 2026-04-28 22:08 | 33.46973 | -122.64879 | 45193 ft | 430 kts | 253° |
| 2026-04-28 22:09 | 33.45530 | -122.71810 | 45188 ft | 428 kts | 253° |
| 2026-04-28 22:09 | 33.44106 | -122.78745 | 45192 ft | 430 kts | 253° |
| 2026-04-28 22:10 | 33.42663 | -122.85699 | 45198 ft | 431 kts | 253° |
| 2026-04-28 22:10 | 33.41215 | -122.92678 | 45199 ft | 433 kts | 253° |
| 2026-04-28 22:11 | 33.39755 | -122.99687 | 45205 ft | 435 kts | 253° |
| 2026-04-28 22:11 | 33.38289 | -123.06706 | 45205 ft | 433 kts | 253° |
| 2026-04-28 22:12 | 33.36836 | -123.13641 | 45199 ft | 431 kts | 253° |
| 2026-04-28 22:12 | 33.35376 | -123.20586 | 45219 ft | 429 kts | 253° |
| 2026-04-28 22:13 | 33.33910 | -123.27537 | 45196 ft | 432 kts | 253° |
| 2026-04-28 22:13 | 33.32432 | -123.34530 | 45203 ft | 434 kts | 253° |
| 2026-04-28 22:14 | 33.30942 | -123.41554 | 45205 ft | 436 kts | 253° |
| 2026-04-28 22:14 | 33.29450 | -123.48568 | 45213 ft | 438 kts | 253° |
| 2026-04-28 22:15 | 33.27940 | -123.55646 | 45213 ft | 440 kts | 253° |
| 2026-04-28 22:15 | 33.26423 | -123.62738 | 45212 ft | 439 kts | 253° |
| 2026-04-28 22:16 | 33.24907 | -123.69801 | 45212 ft | 437 kts | 253° |
| 2026-04-28 22:16 | 33.23396 | -123.76819 | 45208 ft | 435 kts | 252° |
| 2026-04-28 22:17 | 33.21896 | -123.83765 | 45201 ft | 433 kts | 252° |
| 2026-04-28 22:17 | 33.20382 | -123.90757 | 45202 ft | 435 kts | 252° |
| 2026-04-28 22:18 | 33.18859 | -123.97770 | 45207 ft | 437 kts | 252° |
| 2026-04-28 22:18 | 33.17325 | -124.04813 | 45210 ft | 439 kts | 252° |
| 2026-04-28 22:19 | 33.15790 | -124.11840 | 45217 ft | 440 kts | 252° |
| 2026-04-28 22:19 | 33.14239 | -124.18920 | 45218 ft | 441 kts | 252° |
| 2026-04-28 22:20 | 33.12685 | -124.25994 | 45209 ft | 440 kts | 252° |
| 2026-04-28 22:20 | 33.11130 | -124.33047 | 45208 ft | 439 kts | 252° |
| 2026-04-28 22:21 | 33.09571 | -124.40105 | 45207 ft | 439 kts | 252° |
| 2026-04-28 22:21 | 33.08009 | -124.47150 | 45207 ft | 440 kts | 252° |
| 2026-04-28 22:22 | 33.06447 | -124.54173 | 45202 ft | 441 kts | 252° |
| 2026-04-28 22:22 | 33.04863 | -124.61258 | 45205 ft | 443 kts | 252° |
| 2026-04-28 22:23 | 33.03270 | -124.68369 | 45208 ft | 445 kts | 252° |
| 2026-04-28 22:23 | 33.01665 | -124.75510 | 45218 ft | 447 kts | 252° |
| 2026-04-28 22:24 | 33.00062 | -124.82626 | 45209 ft | 448 kts | 252° |
| 2026-04-28 22:24 | 32.98437 | -124.89812 | 45217 ft | 450 kts | 252° |
| 2026-04-28 22:25 | 32.96802 | -124.97025 | 45216 ft | 450 kts | 252° |
| 2026-04-28 22:25 | 32.95166 | -125.04220 | 45211 ft | 449 kts | 252° |
| 2026-04-28 22:26 | 32.93541 | -125.11349 | 45218 ft | 449 kts | 252° |
| 2026-04-28 22:26 | 32.91900 | -125.18526 | 45214 ft | 449 kts | 252° |
| 2026-04-28 22:27 | 32.90254 | -125.25703 | 45214 ft | 449 kts | 252° |
| 2026-04-28 22:27 | 32.88600 | -125.32892 | 45217 ft | 451 kts | 252° |
| 2026-04-28 22:28 | 32.86933 | -125.40121 | 45223 ft | 453 kts | 252° |
| 2026-04-28 22:28 | 32.85259 | -125.47361 | 45223 ft | 455 kts | 252° |
| 2026-04-28 22:29 | 32.83579 | -125.54602 | 45222 ft | 457 kts | 252° |
| 2026-04-28 22:29 | 32.81881 | -125.61905 | 45228 ft | 457 kts | 252° |
| 2026-04-28 22:30 | 32.80186 | -125.69172 | 45214 ft | 455 kts | 252° |
| 2026-04-28 22:30 | 32.78781 | -125.75175 | 45210 ft | 453 kts | 252° |
| 2026-04-28 22:31 | 32.77091 | -125.82379 | 45217 ft | 453 kts | 252° |
| 2026-04-28 22:31 | 32.75390 | -125.89617 | 45225 ft | 455 kts | 252° |
| 2026-04-28 22:32 | 32.73676 | -125.96880 | 45231 ft | 457 kts | 252° |
| 2026-04-28 22:32 | 32.71964 | -126.04122 | 45237 ft | 459 kts | 252° |
| 2026-04-28 22:33 | 32.70238 | -126.11398 | 45225 ft | 457 kts | 252° |
| 2026-04-28 22:33 | 32.68514 | -126.18649 | 45221 ft | 455 kts | 252° |
| 2026-04-28 22:34 | 32.66793 | -126.25863 | 45229 ft | 452 kts | 252° |
| 2026-04-28 22:34 | 32.65071 | -126.33060 | 45224 ft | 455 kts | 252° |
| 2026-04-28 22:35 | 32.63338 | -126.40291 | 45231 ft | 457 kts | 251° |
| 2026-04-28 22:35 | 32.61590 | -126.47556 | 45228 ft | 459 kts | 251° |
| 2026-04-28 22:36 | 32.59831 | -126.54851 | 45219 ft | 461 kts | 252° |
| 2026-04-28 22:36 | 32.58070 | -126.62132 | 45221 ft | 463 kts | 252° |
| 2026-04-28 22:37 | 32.56291 | -126.69469 | 45225 ft | 461 kts | 251° |
| 2026-04-28 22:37 | 32.54518 | -126.76755 | 45224 ft | 459 kts | 252° |
| 2026-04-28 22:38 | 32.52743 | -126.84036 | 45221 ft | 461 kts | 252° |
| 2026-04-28 22:38 | 32.50955 | -126.91347 | 45225 ft | 463 kts | 252° |
| 2026-04-28 22:39 | 32.49153 | -126.98698 | 45230 ft | 465 kts | 252° |
| 2026-04-28 22:39 | 32.47351 | -127.06026 | 45234 ft | 468 kts | 252° |
| 2026-04-28 22:40 | 32.45525 | -127.13433 | 45237 ft | 468 kts | 252° |
| 2026-04-28 22:40 | 32.43702 | -127.20804 | 45235 ft | 465 kts | 252° |
| 2026-04-28 22:41 | 32.41883 | -127.28139 | 45231 ft | 462 kts | 252° |
| 2026-04-28 22:41 | 32.40066 | -127.35449 | 45230 ft | 464 kts | 252° |
| 2026-04-28 22:42 | 32.38235 | -127.42790 | 45232 ft | 466 kts | 252° |
| 2026-04-28 22:42 | 32.36392 | -127.50166 | 45238 ft | 469 kts | 252° |
| 2026-04-28 22:43 | 32.34535 | -127.57575 | 45238 ft | 469 kts | 252° |
| 2026-04-28 22:43 | 32.32695 | -127.64895 | 45235 ft | 467 kts | 252° |
| 2026-04-28 22:44 | 32.30845 | -127.72235 | 45236 ft | 464 kts | 252° |
| 2026-04-28 22:44 | 32.28993 | -127.79560 | 45232 ft | 466 kts | 252° |
| 2026-04-28 22:45 | 32.27128 | -127.86922 | 45241 ft | 468 kts | 252° |
| 2026-04-28 22:45 | 32.25251 | -127.94310 | 45238 ft | 470 kts | 252° |
| 2026-04-28 22:46 | 32.23360 | -128.01730 | 45238 ft | 472 kts | 252° |
| 2026-04-28 22:46 | 32.21463 | -128.09160 | 45236 ft | 472 kts | 252° |
| 2026-04-28 22:47 | 32.19580 | -128.16508 | 45239 ft | 470 kts | 252° |
| 2026-04-28 22:47 | 32.17686 | -128.23881 | 45239 ft | 468 kts | 252° |
| 2026-04-28 22:48 | 32.15793 | -128.31236 | 45238 ft | 469 kts | 251° |
| 2026-04-28 22:48 | 32.13890 | -128.38603 | 45240 ft | 470 kts | 252° |
| 2026-04-28 22:49 | 32.11980 | -128.45984 | 45237 ft | 471 kts | 252° |
| 2026-04-28 22:49 | 32.10061 | -128.53375 | 45240 ft | 471 kts | 252° |
| 2026-04-28 22:50 | 32.08137 | -128.60768 | 45237 ft | 472 kts | 251° |
| 2026-04-28 22:50 | 32.06203 | -128.68174 | 45237 ft | 471 kts | 251° |
| 2026-04-28 22:51 | 32.04273 | -128.75556 | 45239 ft | 471 kts | 251° |
| 2026-04-28 22:51 | 32.02347 | -128.82893 | 45241 ft | 471 kts | 251° |
| 2026-04-28 22:52 | 32.00411 | -128.90255 | 45244 ft | 470 kts | 251° |
| 2026-04-28 22:52 | 31.98471 | -128.97610 | 45241 ft | 470 kts | 251° |
| 2026-04-28 22:53 | 31.96531 | -129.04950 | 45238 ft | 469 kts | 252° |
| 2026-04-28 22:53 | 31.94587 | -129.12278 | 45243 ft | 468 kts | 252° |
| 2026-04-28 22:54 | 31.92642 | -129.19602 | 45233 ft | 468 kts | 252° |
| 2026-04-28 22:54 | 31.90693 | -129.26913 | 45234 ft | 468 kts | 251° |
| 2026-04-28 22:55 | 31.88741 | -129.34224 | 45235 ft | 468 kts | 251° |
| 2026-04-28 22:55 | 31.86780 | -129.41535 | 45242 ft | 468 kts | 252° |
| 2026-04-28 22:56 | 31.84836 | -129.48787 | 45240 ft | 468 kts | 251° |
| 2026-04-28 22:56 | 31.82867 | -129.56090 | 45240 ft | 468 kts | 251° |
| 2026-04-28 22:57 | 31.80901 | -129.63383 | 45240 ft | 468 kts | 252° |
| 2026-04-28 22:57 | 31.78924 | -129.70682 | 45240 ft | 468 kts | 252° |
| 2026-04-28 22:58 | 31.76949 | -129.77969 | 45237 ft | 468 kts | 251° |
| 2026-04-28 22:58 | 31.74968 | -129.85248 | 45236 ft | 468 kts | 252° |
| 2026-04-28 22:59 | 31.72994 | -129.92495 | 45238 ft | 468 kts | 252° |
| 2026-04-28 22:59 | 31.71003 | -129.99775 | 45239 ft | 468 kts | 252° |
| 2026-04-28 23:00 | 31.69009 | -130.07050 | 45238 ft | 469 kts | 252° |
| 2026-04-28 23:00 | 31.67001 | -130.14367 | 45243 ft | 471 kts | 252° |
| 2026-04-28 23:01 | 31.64983 | -130.21689 | 45245 ft | 472 kts | 252° |
| 2026-04-28 23:01 | 31.62957 | -130.29029 | 45236 ft | 473 kts | 252° |
| 2026-04-28 23:02 | 31.60931 | -130.36349 | 45241 ft | 475 kts | 252° |
| 2026-04-28 23:02 | 31.58887 | -130.43719 | 45243 ft | 475 kts | 252° |
| 2026-04-28 23:03 | 31.56837 | -130.51086 | 45241 ft | 475 kts | 252° |
| 2026-04-28 23:03 | 31.54777 | -130.58476 | 45243 ft | 478 kts | 252° |
| 2026-04-28 23:04 | 31.52705 | -130.65886 | 45243 ft | 479 kts | 252° |
| 2026-04-28 23:04 | 31.49586 | -130.77010 | 45246 ft | 478 kts | 252° |
| 2026-04-28 23:05 | 31.47503 | -130.84411 | 45242 ft | 478 kts | 252° |
| 2026-04-28 23:05 | 31.45421 | -130.91798 | 45238 ft | 477 kts | 252° |
| 2026-04-28 23:06 | 31.43349 | -130.99129 | 45237 ft | 477 kts | 252° |
| 2026-04-28 23:06 | 31.41252 | -131.06522 | 45240 ft | 479 kts | 252° |
| 2026-04-28 23:07 | 31.39146 | -131.13939 | 45237 ft | 480 kts | 252° |
| 2026-04-28 23:07 | 31.37030 | -131.21369 | 45239 ft | 481 kts | 252° |
| 2026-04-28 23:08 | 31.34918 | -131.28766 | 45243 ft | 482 kts | 252° |
| 2026-04-28 23:08 | 31.32788 | -131.36203 | 45242 ft | 482 kts | 253° |
| 2026-04-28 23:09 | 31.30660 | -131.43625 | 45242 ft | 481 kts | 252° |
| 2026-04-28 23:09 | 31.28521 | -131.51057 | 45245 ft | 482 kts | 252° |
| 2026-04-28 23:10 | 31.26377 | -131.58493 | 45235 ft | 483 kts | 252° |
| 2026-04-28 23:10 | 31.24228 | -131.65938 | 45235 ft | 484 kts | 253° |
| 2026-04-28 23:11 | 31.22065 | -131.73385 | 45246 ft | 484 kts | 253° |
| 2026-04-28 23:11 | 31.19910 | -131.80822 | 45245 ft | 483 kts | 253° |
| 2026-04-28 23:12 | 31.17754 | -131.88219 | 45237 ft | 484 kts | 252° |
| 2026-04-28 23:12 | 31.15582 | -131.95665 | 45240 ft | 484 kts | 253° |
| 2026-04-28 23:13 | 31.13401 | -132.03112 | 45239 ft | 485 kts | 253° |
| 2026-04-28 23:13 | 31.11231 | -132.10525 | 45245 ft | 485 kts | 253° |
| 2026-04-28 23:14 | 31.09031 | -132.17991 | 45248 ft | 487 kts | 253° |
| 2026-04-28 23:14 | 31.06830 | -132.25464 | 45237 ft | 488 kts | 253° |
| 2026-04-28 23:15 | 31.04619 | -132.32934 | 45238 ft | 487 kts | 253° |
| 2026-04-28 23:15 | 31.02414 | -132.40378 | 45236 ft | 485 kts | 253° |
| 2026-04-28 23:16 | 31.00212 | -132.47789 | 45235 ft | 483 kts | 253° |
| 2026-04-28 23:16 | 30.98007 | -132.55195 | 45233 ft | 482 kts | 253° |
| 2026-04-28 23:17 | 30.95817 | -132.62535 | 45228 ft | 484 kts | 253° |
| 2026-04-28 23:17 | 30.93596 | -132.69957 | 45240 ft | 486 kts | 253° |
| 2026-04-28 23:18 | 30.91362 | -132.77406 | 45246 ft | 488 kts | 253° |
| 2026-04-28 23:18 | 30.89494 | -132.83621 | 45242 ft | 488 kts | 253° |
| 2026-04-28 23:19 | 30.87251 | -132.91067 | 45241 ft | 486 kts | 253° |
| 2026-04-28 23:19 | 30.85014 | -132.98475 | 45238 ft | 483 kts | 253° |
| 2026-04-28 23:20 | 30.82784 | -133.05844 | 45233 ft | 483 kts | 253° |
| 2026-04-28 23:20 | 30.80545 | -133.13230 | 45247 ft | 486 kts | 253° |
| 2026-04-28 23:21 | 30.78279 | -133.20679 | 45241 ft | 489 kts | 253° |
| 2026-04-28 23:21 | 30.76000 | -133.28159 | 45244 ft | 492 kts | 253° |
| 2026-04-28 23:22 | 30.73725 | -133.35605 | 45237 ft | 490 kts | 253° |
| 2026-04-28 23:22 | 30.71446 | -133.43048 | 45242 ft | 486 kts | 253° |
| 2026-04-28 23:23 | 30.69177 | -133.50442 | 45238 ft | 485 kts | 253° |
| 2026-04-28 23:23 | 30.66916 | -133.57794 | 45241 ft | 487 kts | 253° |
| 2026-04-28 23:24 | 30.64626 | -133.65218 | 45241 ft | 489 kts | 253° |
| 2026-04-28 23:24 | 30.62327 | -133.72659 | 45240 ft | 490 kts | 253° |
| 2026-04-28 23:25 | 30.60022 | -133.80098 | 45237 ft | 488 kts | 253° |
| 2026-04-28 23:25 | 30.57727 | -133.87487 | 45244 ft | 485 kts | 253° |
| 2026-04-28 23:26 | 30.55445 | -133.94825 | 45237 ft | 482 kts | 253° |
| 2026-04-28 23:26 | 30.53173 | -134.02110 | 45240 ft | 484 kts | 254° |
| 2026-04-28 23:27 | 30.50874 | -134.09464 | 45250 ft | 486 kts | 254° |
| 2026-04-28 23:27 | 30.48562 | -134.16843 | 45251 ft | 487 kts | 254° |
| 2026-04-28 23:28 | 30.46241 | -134.24231 | 45241 ft | 486 kts | 254° |
| 2026-04-28 23:28 | 30.43942 | -134.31538 | 45238 ft | 483 kts | 254° |
| 2026-04-28 23:29 | 30.41637 | -134.38844 | 45241 ft | 481 kts | 254° |
| 2026-04-28 23:29 | 30.39338 | -134.46119 | 45246 ft | 481 kts | 254° |
| 2026-04-28 23:30 | 30.37035 | -134.53387 | 45254 ft | 484 kts | 254° |
| 2026-04-28 23:30 | 30.34710 | -134.60709 | 45256 ft | 485 kts | 254° |
| 2026-04-28 23:31 | 30.32374 | -134.68048 | 45255 ft | 485 kts | 254° |
| 2026-04-28 23:31 | 30.30039 | -134.75369 | 45254 ft | 484 kts | 254° |
| 2026-04-28 23:32 | 30.27704 | -134.82672 | 45246 ft | 482 kts | 254° |
| 2026-04-28 23:32 | 30.25390 | -134.89895 | 45253 ft | 481 kts | 254° |
| 2026-04-28 23:33 | 30.23066 | -134.97133 | 45242 ft | 480 kts | 254° |
| 2026-04-28 23:33 | 30.20739 | -135.04368 | 45247 ft | 481 kts | 254° |
| 2026-04-28 23:34 | 30.18396 | -135.11633 | 45247 ft | 483 kts | 254° |
| 2026-04-28 23:34 | 30.16046 | -135.18903 | 45256 ft | 483 kts | 254° |
| 2026-04-28 23:35 | 30.13712 | -135.26107 | 45244 ft | 480 kts | 254° |
| 2026-04-28 23:35 | 30.11369 | -135.33328 | 45240 ft | 480 kts | 254° |
| 2026-04-28 23:36 | 30.09020 | -135.40548 | 45249 ft | 480 kts | 254° |
| 2026-04-28 23:36 | 30.06661 | -135.47787 | 45249 ft | 481 kts | 254° |
| 2026-04-28 23:37 | 30.04300 | -135.55011 | 45250 ft | 481 kts | 254° |
| 2026-04-28 23:37 | 30.01949 | -135.62192 | 45250 ft | 481 kts | 255° |
| 2026-04-28 23:38 | 29.99578 | -135.69422 | 45251 ft | 482 kts | 254° |
| 2026-04-28 23:38 | 29.97200 | -135.76650 | 45251 ft | 482 kts | 254° |
| 2026-04-28 23:39 | 29.94823 | -135.83864 | 45250 ft | 481 kts | 255° |
| 2026-04-28 23:39 | 29.92444 | -135.91071 | 45252 ft | 480 kts | 255° |
| 2026-04-28 23:40 | 29.90063 | -135.98264 | 45243 ft | 479 kts | 255° |
| 2026-04-28 23:40 | 29.87703 | -136.05382 | 45252 ft | 477 kts | 255° |
| 2026-04-28 23:41 | 29.85333 | -136.12514 | 45252 ft | 475 kts | 255° |
| 2026-04-28 23:41 | 29.82969 | -136.19612 | 45261 ft | 474 kts | 255° |
| 2026-04-28 23:42 | 29.80608 | -136.26688 | 45259 ft | 473 kts | 255° |
| 2026-04-28 23:42 | 29.78250 | -136.33743 | 45255 ft | 472 kts | 255° |
| 2026-04-28 23:43 | 29.75886 | -136.40797 | 45257 ft | 471 kts | 255° |
| 2026-04-28 23:43 | 29.73529 | -136.47817 | 45256 ft | 471 kts | 255° |
| 2026-04-28 23:44 | 29.71162 | -136.54854 | 45254 ft | 472 kts | 255° |
| 2026-04-28 23:44 | 29.68800 | -136.61858 | 45256 ft | 473 kts | 255° |
| 2026-04-28 23:45 | 29.66417 | -136.68914 | 45255 ft | 473 kts | 255° |
| 2026-04-28 23:45 | 29.64029 | -136.75969 | 45255 ft | 473 kts | 254° |
| 2026-04-28 23:46 | 29.61638 | -136.83016 | 45264 ft | 472 kts | 254° |
| 2026-04-28 23:46 | 29.59255 | -136.90026 | 45256 ft | 470 kts | 254° |
| 2026-04-28 23:47 | 29.56880 | -136.97003 | 45251 ft | 467 kts | 254° |
| 2026-04-28 23:47 | 29.54525 | -137.03902 | 45252 ft | 466 kts | 254° |
| 2026-04-28 23:48 | 29.52155 | -137.10838 | 45261 ft | 467 kts | 254° |
| 2026-04-28 23:48 | 29.49767 | -137.17805 | 45264 ft | 468 kts | 254° |
| 2026-04-28 23:49 | 29.47382 | -137.24753 | 45258 ft | 467 kts | 254° |
| 2026-04-28 23:49 | 29.45008 | -137.31654 | 45260 ft | 467 kts | 254° |
| 2026-04-28 23:50 | 29.42622 | -137.38578 | 45248 ft | 466 kts | 254° |
| 2026-04-28 23:50 | 29.40239 | -137.45476 | 45257 ft | 464 kts | 253° |
| 2026-04-28 23:51 | 29.37866 | -137.52338 | 45257 ft | 462 kts | 254° |
| 2026-04-28 23:51 | 29.35492 | -137.59186 | 45254 ft | 461 kts | 253° |
| 2026-04-28 23:52 | 29.33122 | -137.66009 | 45261 ft | 461 kts | 253° |
| 2026-04-28 23:52 | 29.30761 | -137.72792 | 45260 ft | 461 kts | 253° |
| 2026-04-28 23:53 | 29.28381 | -137.79620 | 45263 ft | 461 kts | 253° |
| 2026-04-28 23:53 | 29.25997 | -137.86442 | 45257 ft | 461 kts | 253° |
| 2026-04-28 23:54 | 29.23612 | -137.93258 | 45258 ft | 461 kts | 253° |
| 2026-04-28 23:54 | 29.21221 | -138.00077 | 45254 ft | 461 kts | 253° |
| 2026-04-28 23:55 | 29.18830 | -138.06882 | 45255 ft | 460 kts | 253° |
| 2026-04-28 23:55 | 29.16437 | -138.13679 | 45254 ft | 459 kts | 253° |
| 2026-04-28 23:56 | 29.14062 | -138.20413 | 45254 ft | 459 kts | 253° |
| 2026-04-28 23:56 | 29.11674 | -138.27172 | 45250 ft | 458 kts | 252° |
| 2026-04-28 23:57 | 29.09288 | -138.33909 | 45252 ft | 457 kts | 252° |
| 2026-04-28 23:57 | 29.06899 | -138.40647 | 45251 ft | 457 kts | 252° |
| 2026-04-28 23:58 | 29.04504 | -138.47385 | 45249 ft | 458 kts | 252° |
| 2026-04-28 23:58 | 29.02100 | -138.54140 | 45248 ft | 458 kts | 252° |
| 2026-04-28 23:59 | 28.99707 | -138.60848 | 45251 ft | 459 kts | 252° |
| 2026-04-28 23:59 | 28.97294 | -138.67602 | 45256 ft | 459 kts | 252° |
| 2026-04-29 00:00 | 28.94875 | -138.74356 | 45253 ft | 459 kts | 252° |
| 2026-04-29 00:00 | 28.92455 | -138.81105 | 45253 ft | 460 kts | 252° |
| 2026-04-29 00:01 | 28.90023 | -138.87871 | 45249 ft | 460 kts | 252° |
| 2026-04-29 00:01 | 28.87590 | -138.94631 | 45252 ft | 460 kts | 252° |
| 2026-04-29 00:02 | 28.85154 | -139.01384 | 45247 ft | 460 kts | 252° |
| 2026-04-29 00:02 | 28.82713 | -139.08139 | 45248 ft | 461 kts | 251° |
| 2026-04-29 00:03 | 28.80281 | -139.14858 | 45241 ft | 461 kts | 251° |
| 2026-04-29 00:03 | 28.77832 | -139.21611 | 45250 ft | 461 kts | 251° |
| 2026-04-29 00:04 | 28.75377 | -139.28366 | 45250 ft | 461 kts | 251° |
| 2026-04-29 00:04 | 28.72937 | -139.35070 | 45241 ft | 461 kts | 251° |
| 2026-04-29 00:05 | 28.70461 | -139.41859 | 45238 ft | 461 kts | 251° |
| 2026-04-29 00:05 | 28.67993 | -139.48598 | 45249 ft | 461 kts | 251° |
| 2026-04-29 00:06 | 28.65534 | -139.55293 | 45247 ft | 461 kts | 251° |
| 2026-04-29 00:06 | 28.63056 | -139.62031 | 45247 ft | 461 kts | 251° |
| 2026-04-29 00:07 | 28.60573 | -139.68768 | 45240 ft | 461 kts | 251° |
| 2026-04-29 00:07 | 28.58083 | -139.75517 | 45240 ft | 461 kts | 251° |
| 2026-04-29 00:08 | 28.55610 | -139.82204 | 45243 ft | 461 kts | 250° |
| 2026-04-29 00:08 | 28.53114 | -139.88941 | 45244 ft | 462 kts | 250° |
| 2026-04-29 00:09 | 28.51036 | -139.94539 | 45244 ft | 462 kts | 250° |
| 2026-04-29 00:09 | 28.48535 | -140.01270 | 45239 ft | 462 kts | 250° |
| 2026-04-29 00:10 | 28.46031 | -140.07994 | 45242 ft | 462 kts | 250° |
| 2026-04-29 00:10 | 28.43524 | -140.14713 | 45237 ft | 462 kts | 250° |
| 2026-04-29 00:11 | 28.41011 | -140.21437 | 45238 ft | 462 kts | 250° |
| 2026-04-29 00:12 | 28.37236 | -140.31516 | 45241 ft | 462 kts | 250° |
| 2026-04-29 00:12 | 28.34713 | -140.38238 | 45239 ft | 462 kts | 250° |
| 2026-04-29 00:13 | 28.32187 | -140.44955 | 45237 ft | 462 kts | 250° |
| 2026-04-29 00:13 | 28.29674 | -140.51625 | 45237 ft | 462 kts | 250° |
| 2026-04-29 00:14 | 28.27144 | -140.58332 | 45234 ft | 462 kts | 250° |
| 2026-04-29 00:14 | 28.24608 | -140.65038 | 45232 ft | 462 kts | 250° |
| 2026-04-29 00:15 | 28.22095 | -140.71670 | 45230 ft | 452 kts | 250° |
| 2026-04-29 00:15 | 28.19646 | -140.78129 | 45226 ft | 441 kts | 250° |
| 2026-04-29 00:16 | 28.17247 | -140.84442 | 45229 ft | 431 kts | 250° |
| 2026-04-29 00:16 | 28.14914 | -140.90572 | 45224 ft | 421 kts | 249° |
| 2026-04-29 00:17 | 28.12615 | -140.96600 | 45228 ft | 413 kts | 250° |
| 2026-04-29 00:17 | 28.10359 | -141.02510 | 45226 ft | 404 kts | 250° |
| 2026-04-29 00:18 | 28.08144 | -141.08302 | 45224 ft | 397 kts | 250° |
| 2026-04-29 00:18 | 28.05969 | -141.13981 | 45225 ft | 390 kts | 250° |
| 2026-04-29 00:19 | 28.03825 | -141.19573 | 45222 ft | 383 kts | 250° |
| 2026-04-29 00:19 | 28.01717 | -141.25060 | 45220 ft | 377 kts | 250° |
| 2026-04-29 00:20 | 27.99651 | -141.30432 | 45223 ft | 371 kts | 250° |
| 2026-04-29 00:20 | 27.97602 | -141.35752 | 45231 ft | 365 kts | 249° |
| 2026-04-29 00:21 | 27.95582 | -141.40988 | 45220 ft | 360 kts | 249° |
| 2026-04-29 00:21 | 27.93592 | -141.46140 | 45213 ft | 355 kts | 249° |
| 2026-04-29 00:22 | 27.91626 | -141.51224 | 45213 ft | 350 kts | 249° |
| 2026-04-29 00:22 | 27.89684 | -141.56240 | 45218 ft | 345 kts | 249° |
| 2026-04-29 00:23 | 27.87780 | -141.61151 | 45214 ft | 341 kts | 249° |
| 2026-04-29 00:23 | 27.85887 | -141.66027 | 45217 ft | 336 kts | 249° |
| 2026-04-29 00:24 | 27.84018 | -141.70834 | 45226 ft | 332 kts | 249° |
| 2026-04-29 00:24 | 27.82172 | -141.75578 | 45213 ft | 327 kts | 249° |
| 2026-04-29 00:25 | 27.80346 | -141.80264 | 45213 ft | 323 kts | 249° |
| 2026-04-29 00:25 | 27.78557 | -141.84850 | 45219 ft | 319 kts | 249° |
| 2026-04-29 00:26 | 27.76781 | -141.89397 | 45213 ft | 315 kts | 249° |
| 2026-04-29 00:26 | 27.75025 | -141.93888 | 45220 ft | 310 kts | 249° |
| 2026-04-29 00:27 | 27.73292 | -141.98317 | 45221 ft | 306 kts | 249° |
| 2026-04-29 00:27 | 27.71583 | -142.02677 | 45213 ft | 301 kts | 249° |
| 2026-04-29 00:27 | 27.70737 | -142.04834 | 45214 ft | 299 kts | 248° |
| 2026-04-29 00:28 | 27.69909 | -142.06944 | 45221 ft | 297 kts | 249° |
| 2026-04-29 00:28 | 27.69076 | -142.09064 | 45218 ft | 294 kts | 249° |
| 2026-04-29 00:28 | 27.68248 | -142.11172 | 45221 ft | 292 kts | 249° |
| 2026-04-29 00:28 | 27.67429 | -142.13254 | 45218 ft | 290 kts | 249° |
| 2026-04-29 00:29 | 27.66616 | -142.15323 | 45210 ft | 287 kts | 249° |
| 2026-04-29 00:29 | 27.65810 | -142.17371 | 45209 ft | 285 kts | 249° |
| 2026-04-29 00:29 | 27.65008 | -142.19407 | 45213 ft | 282 kts | 249° |
| 2026-04-29 00:29 | 27.64216 | -142.21420 | 45217 ft | 279 kts | 249° |
| 2026-04-29 00:30 | 27.63431 | -142.23411 | 45222 ft | 276 kts | 249° |
| 2026-04-29 00:30 | 27.62655 | -142.25380 | 45216 ft | 274 kts | 249° |
| 2026-04-29 00:30 | 27.61873 | -142.27364 | 45225 ft | 280 kts | 249° |
| 2026-04-29 00:30 | 27.61072 | -142.29395 | 45239 ft | 287 kts | 248° |
| 2026-04-29 00:31 | 27.60247 | -142.31484 | 45237 ft | 296 kts | 248° |
| 2026-04-29 00:31 | 27.58521 | -142.35851 | 45234 ft | 313 kts | 248° |
| 2026-04-29 00:32 | 27.56695 | -142.40466 | 45230 ft | 332 kts | 248° |
| 2026-04-29 00:32 | 27.54763 | -142.45344 | 45227 ft | 350 kts | 248° |
| 2026-04-29 00:33 | 27.52738 | -142.50448 | 45229 ft | 368 kts | 248° |
| 2026-04-29 00:33 | 27.50594 | -142.55846 | 45226 ft | 386 kts | 247° |
| 2026-04-29 00:34 | 27.48346 | -142.61496 | 45229 ft | 404 kts | 247° |
| 2026-04-29 00:34 | 27.46001 | -142.67385 | 45232 ft | 420 kts | 247° |
| 2026-04-29 00:35 | 27.43554 | -142.73519 | 45225 ft | 437 kts | 247° |
| 2026-04-29 00:35 | 27.41017 | -142.79869 | 45230 ft | 452 kts | 246° |
| 2026-04-29 00:36 | 27.38486 | -142.86187 | 45210 ft | 428 kts | 246° |
| 2026-04-29 00:36 | 27.37290 | -142.89173 | 45205 ft | 410 kts | 246° |
| 2026-04-29 00:36 | 27.36144 | -142.92033 | 45209 ft | 393 kts | 246° |
| 2026-04-29 00:36 | 27.35042 | -142.94780 | 45203 ft | 376 kts | 247° |
| 2026-04-29 00:37 | 27.33989 | -142.97403 | 45200 ft | 361 kts | 247° |
| 2026-04-29 00:37 | 27.32978 | -142.99920 | 45203 ft | 346 kts | 247° |
| 2026-04-29 00:37 | 27.32003 | -143.02345 | 45190 ft | 332 kts | 246° |
| 2026-04-29 00:37 | 27.31073 | -143.04659 | 45199 ft | 318 kts | 246° |
| 2026-04-29 00:38 | 27.30179 | -143.06877 | 45198 ft | 304 kts | 246° |
| 2026-04-29 00:38 | 27.29325 | -143.08999 | 45195 ft | 291 kts | 246° |
| 2026-04-29 00:38 | 27.28509 | -143.11024 | 45193 ft | 278 kts | 246° |
| 2026-04-29 00:38 | 27.27731 | -143.12955 | 45189 ft | 266 kts | 246° |
| 2026-04-29 00:39 | 27.26962 | -143.14863 | 45214 ft | 270 kts | 246° |
| 2026-04-29 00:39 | 27.26178 | -143.16809 | 45233 ft | 277 kts | 246° |
| 2026-04-29 00:39 | 27.25380 | -143.18786 | 45229 ft | 285 kts | 246° |
| 2026-04-29 00:39 | 27.24550 | -143.20839 | 45230 ft | 294 kts | 246° |
| 2026-04-29 00:40 | 27.23692 | -143.22964 | 45226 ft | 302 kts | 246° |
| 2026-04-29 00:40 | 27.21899 | -143.27398 | 45225 ft | 321 kts | 246° |
| 2026-04-29 00:41 | 27.19999 | -143.32089 | 45224 ft | 339 kts | 246° |
| 2026-04-29 00:41 | 27.17987 | -143.37056 | 45215 ft | 358 kts | 246° |
| 2026-04-29 00:42 | 27.15871 | -143.42266 | 45220 ft | 376 kts | 246° |
| 2026-04-29 00:42 | 27.13650 | -143.47734 | 45225 ft | 394 kts | 246° |
| 2026-04-29 00:43 | 27.11337 | -143.53417 | 45224 ft | 411 kts | 246° |
| 2026-04-29 00:43 | 27.08907 | -143.59379 | 45223 ft | 428 kts | 246° |
| 2026-04-29 00:44 | 27.06379 | -143.65572 | 45216 ft | 444 kts | 246° |
| 2026-04-29 00:44 | 27.03769 | -143.71957 | 45209 ft | 445 kts | 246° |
| 2026-04-29 00:44 | 27.02507 | -143.75039 | 45197 ft | 425 kts | 245° |
| 2026-04-29 00:45 | 27.01301 | -143.77984 | 45188 ft | 407 kts | 245° |
| 2026-04-29 00:45 | 27.00145 | -143.80805 | 45192 ft | 389 kts | 245° |
| 2026-04-29 00:45 | 26.99036 | -143.83509 | 45192 ft | 373 kts | 245° |
| 2026-04-29 00:45 | 26.97988 | -143.86064 | 45196 ft | 358 kts | 245° |
| 2026-04-29 00:46 | 26.96967 | -143.88550 | 45196 ft | 343 kts | 245° |
| 2026-04-29 00:46 | 26.95986 | -143.90937 | 45195 ft | 329 kts | 245° |
| 2026-04-29 00:46 | 26.95051 | -143.93212 | 45186 ft | 315 kts | 245° |
| 2026-04-29 00:46 | 26.94152 | -143.95395 | 45187 ft | 304 kts | 245° |
| 2026-04-29 00:47 | 26.93263 | -143.97559 | 45202 ft | 307 kts | 245° |
| 2026-04-29 00:47 | 26.91452 | -144.01953 | 45210 ft | 314 kts | 245° |
| 2026-04-29 00:48 | 26.89600 | -144.06445 | 45212 ft | 321 kts | 245° |
| 2026-04-29 00:48 | 26.87707 | -144.11031 | 45210 ft | 328 kts | 245° |
| 2026-04-29 00:49 | 26.85770 | -144.15718 | 45210 ft | 335 kts | 245° |
| 2026-04-29 00:49 | 26.83790 | -144.20505 | 45208 ft | 342 kts | 245° |
| 2026-04-29 00:50 | 26.81776 | -144.25368 | 45214 ft | 349 kts | 245° |
| 2026-04-29 00:50 | 26.79702 | -144.30367 | 45215 ft | 361 kts | 245° |
| 2026-04-29 00:51 | 26.77529 | -144.35601 | 45212 ft | 380 kts | 245° |
| 2026-04-29 00:51 | 26.75243 | -144.41100 | 45200 ft | 398 kts | 245° |
| 2026-04-29 00:52 | 26.72856 | -144.46834 | 45210 ft | 415 kts | 245° |
| 2026-04-29 00:52 | 26.70382 | -144.52766 | 45212 ft | 432 kts | 245° |
| 2026-04-29 00:53 | 26.67789 | -144.58977 | 45215 ft | 448 kts | 245° |
| 2026-04-29 00:53 | 26.65174 | -144.65230 | 45194 ft | 427 kts | 245° |
| 2026-04-29 00:53 | 26.63940 | -144.68177 | 45189 ft | 408 kts | 245° |
| 2026-04-29 00:54 | 26.62776 | -144.70956 | 45184 ft | 391 kts | 245° |
| 2026-04-29 00:54 | 26.61645 | -144.73654 | 45184 ft | 374 kts | 245° |
| 2026-04-29 00:54 | 26.60562 | -144.76237 | 45178 ft | 359 kts | 245° |
| 2026-04-29 00:54 | 26.59526 | -144.78705 | 45183 ft | 344 kts | 245° |
| 2026-04-29 00:55 | 26.58532 | -144.81071 | 45182 ft | 329 kts | 245° |
| 2026-04-29 00:55 | 26.57577 | -144.83344 | 45181 ft | 316 kts | 245° |
| 2026-04-29 00:55 | 26.56664 | -144.85517 | 45180 ft | 302 kts | 245° |
| 2026-04-29 00:55 | 26.55790 | -144.87595 | 45178 ft | 289 kts | 245° |
| 2026-04-29 00:56 | 26.54953 | -144.89582 | 45175 ft | 277 kts | 245° |
| 2026-04-29 00:56 | 26.54138 | -144.91518 | 45185 ft | 276 kts | 245° |
| 2026-04-29 00:56 | 26.53596 | -144.92805 | 45188 ft | 278 kts | 245° |
| 2026-04-29 00:56 | 26.52770 | -144.94767 | 45198 ft | 281 kts | 245° |
| 2026-04-29 00:57 | 26.51660 | -144.97400 | 45200 ft | 285 kts | 245° |
| 2026-04-29 00:57 | 26.50811 | -144.99411 | 45202 ft | 288 kts | 245° |
| 2026-04-29 00:57 | 26.49953 | -145.01445 | 45210 ft | 291 kts | 244° |
| 2026-04-29 00:57 | 26.49377 | -145.02810 | 45201 ft | 294 kts | 244° |
| 2026-04-29 00:58 | 26.48499 | -145.04887 | 45197 ft | 297 kts | 244° |
| 2026-04-29 00:58 | 26.46710 | -145.09119 | 45197 ft | 305 kts | 244° |
| 2026-04-29 00:59 | 26.44879 | -145.13447 | 45198 ft | 312 kts | 244° |
| 2026-04-29 00:59 | 26.43000 | -145.17884 | 45200 ft | 319 kts | 244° |
| 2026-04-29 01:00 | 26.41078 | -145.22417 | 45201 ft | 327 kts | 244° |
| 2026-04-29 01:00 | 26.39123 | -145.27023 | 45204 ft | 334 kts | 244° |
| 2026-04-29 01:01 | 26.37111 | -145.31757 | 45201 ft | 341 kts | 244° |
| 2026-04-29 01:01 | 26.35052 | -145.36598 | 45200 ft | 349 kts | 244° |
| 2026-04-29 01:02 | 26.32952 | -145.41528 | 45202 ft | 356 kts | 244° |
| 2026-04-29 01:02 | 26.30805 | -145.46562 | 45201 ft | 362 kts | 244° |
| 2026-04-29 01:03 | 26.28620 | -145.51681 | 45198 ft | 369 kts | 244° |
| 2026-04-29 01:03 | 26.26411 | -145.56849 | 45199 ft | 374 kts | 244° |
| 2026-04-29 01:04 | 26.24171 | -145.62083 | 45195 ft | 380 kts | 244° |
| 2026-04-29 01:04 | 26.22950 | -145.67664 | 44609 ft | 386 kts | 271° |
| 2026-04-29 01:04 | 26.22178 | -145.70405 | 42917 ft | 392 kts | 227° |
| 2026-04-29 01:05 | 26.20093 | -145.72727 | 41421 ft | 429 kts | 229° |
| 2026-04-29 01:05 | 26.18311 | -145.75334 | 41694 ft | 421 kts | 236° |
| 2026-04-29 01:05 | 26.16899 | -145.78199 | 41845 ft | 423 kts | 244° |
| 2026-04-29 01:05 | 26.15758 | -145.81227 | 41994 ft | 424 kts | 247° |
| 2026-04-29 01:06 | 26.14680 | -145.84285 | 42123 ft | 425 kts | 246° |
| 2026-04-29 01:06 | 26.13458 | -145.87290 | 42257 ft | 425 kts | 243° |
| 2026-04-29 01:06 | 26.12106 | -145.90218 | 42393 ft | 426 kts | 242° |
| 2026-04-29 01:06 | 26.10770 | -145.93159 | 42527 ft | 426 kts | 243° |
| 2026-04-29 01:07 | 26.09509 | -145.96147 | 42664 ft | 427 kts | 244° |
| 2026-04-29 01:07 | 26.06958 | -146.02117 | 42944 ft | 427 kts | 243° |
| 2026-04-29 01:07 | 26.05652 | -146.05088 | 43057 ft | 428 kts | 243° |
| 2026-04-29 01:08 | 26.04363 | -146.08073 | 43169 ft | 429 kts | 244° |
| 2026-04-29 01:08 | 26.03075 | -146.11074 | 43292 ft | 429 kts | 243° |
| 2026-04-29 01:08 | 26.01779 | -146.14065 | 43397 ft | 430 kts | 243° |
| 2026-04-29 01:08 | 26.00475 | -146.17059 | 43500 ft | 430 kts | 243° |
| 2026-04-29 01:09 | 25.99191 | -146.20019 | 43597 ft | 431 kts | 244° |
| 2026-04-29 01:09 | 25.96588 | -146.26035 | 43778 ft | 432 kts | 244° |
| 2026-04-29 01:10 | 25.93968 | -146.32062 | 43959 ft | 433 kts | 244° |
| 2026-04-29 01:10 | 25.91349 | -146.38090 | 44125 ft | 434 kts | 244° |
| 2026-04-29 01:11 | 25.88716 | -146.44136 | 44275 ft | 435 kts | 244° |
| 2026-04-29 01:11 | 25.86075 | -146.50194 | 44415 ft | 436 kts | 244° |
| 2026-04-29 01:12 | 25.83428 | -146.56256 | 44542 ft | 436 kts | 244° |
| 2026-04-29 01:12 | 25.80774 | -146.62327 | 44662 ft | 437 kts | 244° |
| 2026-04-29 01:13 | 25.78132 | -146.68360 | 44767 ft | 438 kts | 244° |
| 2026-04-29 01:13 | 25.75467 | -146.74439 | 44863 ft | 438 kts | 244° |
| 2026-04-29 01:14 | 25.72797 | -146.80521 | 44934 ft | 439 kts | 244° |
| 2026-04-29 01:14 | 25.70118 | -146.86613 | 45031 ft | 439 kts | 243° |
| 2026-04-29 01:15 | 25.67438 | -146.92700 | 45091 ft | 440 kts | 243° |
| 2026-04-29 01:15 | 25.64756 | -146.98783 | 45161 ft | 440 kts | 243° |
| 2026-04-29 01:16 | 25.62057 | -147.04896 | 45161 ft | 442 kts | 243° |
| 2026-04-29 01:16 | 25.59363 | -147.10990 | 45164 ft | 443 kts | 243° |
| 2026-04-29 01:17 | 25.56660 | -147.17094 | 45168 ft | 439 kts | 243° |
| 2026-04-29 01:17 | 25.53977 | -147.23145 | 45164 ft | 436 kts | 243° |
| 2026-04-29 01:18 | 25.51292 | -147.29193 | 45158 ft | 438 kts | 243° |
| 2026-04-29 01:18 | 25.47240 | -147.38303 | 45178 ft | 441 kts | 243° |
| 2026-04-29 01:19 | 25.44545 | -147.44355 | 45164 ft | 440 kts | 243° |
| 2026-04-29 01:19 | 25.41842 | -147.50413 | 45164 ft | 438 kts | 243° |
| 2026-04-29 01:20 | 25.39148 | -147.56445 | 45161 ft | 436 kts | 243° |
| 2026-04-29 01:20 | 25.36456 | -147.62462 | 45162 ft | 437 kts | 243° |
| 2026-04-29 01:21 | 25.33750 | -147.68503 | 45168 ft | 439 kts | 243° |
| 2026-04-29 01:21 | 25.31033 | -147.74562 | 45158 ft | 441 kts | 243° |
| 2026-04-29 01:22 | 25.28320 | -147.80601 | 45159 ft | 440 kts | 243° |
| 2026-04-29 01:22 | 25.25606 | -147.86635 | 45156 ft | 437 kts | 243° |
| 2026-04-29 01:23 | 25.22905 | -147.92633 | 45166 ft | 435 kts | 243° |
| 2026-04-29 01:23 | 25.20199 | -147.98634 | 45162 ft | 437 kts | 243° |
| 2026-04-29 01:24 | 25.17477 | -148.04662 | 45165 ft | 439 kts | 243° |
| 2026-04-29 01:24 | 25.14757 | -148.10675 | 45153 ft | 440 kts | 243° |
| 2026-04-29 01:25 | 25.12026 | -148.16710 | 45148 ft | 437 kts | 243° |
| 2026-04-29 01:25 | 25.09316 | -148.22686 | 45156 ft | 434 kts | 243° |
| 2026-04-29 01:26 | 25.06607 | -148.28652 | 45156 ft | 435 kts | 243° |
| 2026-04-29 01:26 | 25.03905 | -148.34597 | 45155 ft | 437 kts | 243° |
| 2026-04-29 01:27 | 25.01173 | -148.40599 | 45160 ft | 438 kts | 243° |
| 2026-04-29 01:27 | 24.98435 | -148.46605 | 45162 ft | 439 kts | 243° |
| 2026-04-29 01:28 | 24.95693 | -148.52616 | 45155 ft | 439 kts | 243° |
| 2026-04-29 01:28 | 24.92952 | -148.58611 | 45153 ft | 437 kts | 243° |
| 2026-04-29 01:29 | 24.90218 | -148.64586 | 45147 ft | 436 kts | 243° |
| 2026-04-29 01:29 | 24.87508 | -148.70500 | 45151 ft | 434 kts | 243° |
| 2026-04-29 01:30 | 24.84785 | -148.76436 | 45147 ft | 435 kts | 243° |
| 2026-04-29 01:30 | 24.82051 | -148.82387 | 45148 ft | 436 kts | 243° |
| 2026-04-29 01:31 | 24.79304 | -148.88359 | 45151 ft | 437 kts | 243° |
| 2026-04-29 01:31 | 24.76551 | -148.94336 | 45149 ft | 438 kts | 243° |
| 2026-04-29 01:32 | 24.73803 | -149.00294 | 45151 ft | 439 kts | 243° |
| 2026-04-29 01:32 | 24.71032 | -149.06294 | 45149 ft | 440 kts | 243° |
| 2026-04-29 01:33 | 24.68266 | -149.12276 | 45148 ft | 437 kts | 243° |
| 2026-04-29 01:33 | 24.65515 | -149.18218 | 45146 ft | 435 kts | 243° |
| 2026-04-29 01:34 | 24.62764 | -149.24153 | 45144 ft | 436 kts | 243° |
| 2026-04-29 01:34 | 24.60007 | -149.30092 | 45140 ft | 437 kts | 243° |
| 2026-04-29 01:35 | 24.57235 | -149.36055 | 45150 ft | 438 kts | 243° |
| 2026-04-29 01:35 | 24.54471 | -149.41995 | 45153 ft | 439 kts | 243° |
| 2026-04-29 01:36 | 24.51683 | -149.47977 | 45152 ft | 440 kts | 243° |
| 2026-04-29 01:36 | 24.48887 | -149.53971 | 45152 ft | 441 kts | 243° |
| 2026-04-29 01:37 | 24.46094 | -149.59948 | 45146 ft | 438 kts | 243° |
| 2026-04-29 01:37 | 24.43316 | -149.65886 | 45127 ft | 436 kts | 243° |
| 2026-04-29 01:38 | 24.40549 | -149.71794 | 45130 ft | 435 kts | 243° |
| 2026-04-29 01:38 | 24.37770 | -149.77721 | 45130 ft | 437 kts | 243° |
| 2026-04-29 01:39 | 24.34983 | -149.83655 | 45133 ft | 438 kts | 243° |
| 2026-04-29 01:39 | 24.32183 | -149.89610 | 45141 ft | 440 kts | 243° |
| 2026-04-29 01:40 | 24.29391 | -149.95542 | 45139 ft | 441 kts | 243° |
| 2026-04-29 01:40 | 24.26573 | -150.01521 | 45143 ft | 442 kts | 242° |
| 2026-04-29 01:41 | 24.23751 | -150.07498 | 45126 ft | 440 kts | 243° |
| 2026-04-29 01:41 | 24.20953 | -150.13422 | 45121 ft | 435 kts | 243° |
| 2026-04-29 01:42 | 24.18162 | -150.19319 | 45132 ft | 436 kts | 243° |
| 2026-04-29 01:42 | 24.15356 | -150.25240 | 45135 ft | 438 kts | 243° |
| 2026-04-29 01:43 | 24.13717 | -150.28697 | 45142 ft | 439 kts | 243° |
| 2026-04-29 01:43 | 24.10898 | -150.34635 | 45141 ft | 440 kts | 243° |
| 2026-04-29 01:44 | 24.08068 | -150.40591 | 45136 ft | 442 kts | 243° |
| 2026-04-29 01:44 | 24.05232 | -150.46550 | 45136 ft | 440 kts | 243° |
| 2026-04-29 01:45 | 24.02412 | -150.52469 | 45131 ft | 438 kts | 243° |
| 2026-04-29 01:45 | 23.99589 | -150.58386 | 45132 ft | 438 kts | 243° |
| 2026-04-29 01:46 | 23.97241 | -150.63302 | 45131 ft | 439 kts | 243° |
| 2026-04-29 01:46 | 23.94409 | -150.69225 | 45131 ft | 440 kts | 243° |
| 2026-04-29 01:47 | 23.91572 | -150.75151 | 45140 ft | 440 kts | 243° |
| 2026-04-29 01:47 | 23.88718 | -150.81103 | 45133 ft | 442 kts | 242° |
| 2026-04-29 01:48 | 23.85854 | -150.87068 | 45122 ft | 444 kts | 243° |
| 2026-04-29 01:48 | 23.83004 | -150.93003 | 45122 ft | 445 kts | 243° |
| 2026-04-29 01:49 | 23.80114 | -150.99008 | 45127 ft | 446 kts | 243° |
| 2026-04-29 01:49 | 23.77226 | -151.05002 | 45132 ft | 444 kts | 242° |
| 2026-04-29 01:50 | 23.74351 | -151.10963 | 45122 ft | 443 kts | 242° |
| 2026-04-29 01:50 | 23.71472 | -151.16926 | 45126 ft | 444 kts | 242° |
| 2026-04-29 01:51 | 23.68592 | -151.22881 | 45121 ft | 444 kts | 242° |
| 2026-04-29 01:51 | 23.65722 | -151.28808 | 45113 ft | 444 kts | 243° |
| 2026-04-29 01:52 | 23.62836 | -151.34763 | 45127 ft | 444 kts | 243° |
| 2026-04-29 01:52 | 23.59951 | -151.40708 | 45123 ft | 443 kts | 242° |
| 2026-04-29 01:53 | 23.57062 | -151.46653 | 45119 ft | 442 kts | 242° |
| 2026-04-29 01:53 | 23.54182 | -151.52572 | 45119 ft | 442 kts | 242° |
| 2026-04-29 01:54 | 23.51305 | -151.58480 | 45118 ft | 441 kts | 242° |
| 2026-04-29 01:54 | 23.48447 | -151.64340 | 45117 ft | 440 kts | 242° |
| 2026-04-29 01:55 | 23.45567 | -151.70237 | 45106 ft | 441 kts | 243° |
| 2026-04-29 01:55 | 23.42683 | -151.76139 | 45108 ft | 441 kts | 243° |
| 2026-04-29 01:56 | 23.39795 | -151.82037 | 45106 ft | 441 kts | 243° |
| 2026-04-29 01:56 | 23.36903 | -151.87941 | 45104 ft | 441 kts | 243° |
| 2026-04-29 01:57 | 23.34027 | -151.93801 | 45115 ft | 442 kts | 242° |
| 2026-04-29 01:57 | 23.31124 | -151.99712 | 45115 ft | 442 kts | 242° |
| 2026-04-29 01:58 | 23.28223 | -152.05610 | 45113 ft | 442 kts | 242° |
| 2026-04-29 01:58 | 23.25320 | -152.11503 | 45103 ft | 441 kts | 243° |
| 2026-04-29 01:59 | 23.22420 | -152.17390 | 45099 ft | 441 kts | 243° |
| 2026-04-29 01:59 | 23.19523 | -152.23258 | 45114 ft | 440 kts | 243° |
| 2026-04-29 02:00 | 23.16635 | -152.29101 | 45119 ft | 442 kts | 243° |
| 2026-04-29 02:00 | 23.13720 | -152.34995 | 45113 ft | 443 kts | 243° |
| 2026-04-29 02:01 | 23.10790 | -152.40909 | 45114 ft | 445 kts | 243° |
| 2026-04-29 02:01 | 23.07852 | -152.46835 | 45113 ft | 446 kts | 243° |
| 2026-04-29 02:02 | 23.04906 | -152.52768 | 45115 ft | 445 kts | 243° |
| 2026-04-29 02:02 | 23.01968 | -152.58678 | 45109 ft | 444 kts | 243° |
| 2026-04-29 02:03 | 22.99021 | -152.64551 | 45107 ft | 443 kts | 243° |
| 2026-04-29 02:03 | 22.96073 | -152.70429 | 45107 ft | 444 kts | 243° |
| 2026-04-29 02:04 | 22.93121 | -152.76308 | 45106 ft | 444 kts | 243° |
| 2026-04-29 02:04 | 22.90155 | -152.82206 | 45108 ft | 445 kts | 243° |
| 2026-04-29 02:05 | 22.87183 | -152.88110 | 45109 ft | 447 kts | 243° |
| 2026-04-29 02:05 | 22.84217 | -152.93994 | 45111 ft | 448 kts | 243° |
| 2026-04-29 02:06 | 22.81223 | -152.99929 | 45114 ft | 449 kts | 243° |
| 2026-04-29 02:06 | 22.78236 | -153.05840 | 45112 ft | 446 kts | 243° |
| 2026-04-29 02:07 | 22.75259 | -153.11727 | 45107 ft | 444 kts | 243° |
| 2026-04-29 02:07 | 22.72290 | -153.17590 | 45108 ft | 445 kts | 243° |
| 2026-04-29 02:08 | 22.69305 | -153.23478 | 45113 ft | 447 kts | 243° |
| 2026-04-29 02:08 | 22.66300 | -153.29399 | 45113 ft | 449 kts | 243° |
| 2026-04-29 02:09 | 22.63292 | -153.35318 | 45097 ft | 450 kts | 243° |
| 2026-04-29 02:09 | 22.60282 | -153.41234 | 45095 ft | 447 kts | 243° |
| 2026-04-29 02:10 | 22.57285 | -153.47119 | 45097 ft | 446 kts | 243° |
| 2026-04-29 02:10 | 22.54277 | -153.53020 | 45096 ft | 449 kts | 243° |
| 2026-04-29 02:11 | 22.51268 | -153.58914 | 45098 ft | 451 kts | 243° |
| 2026-04-29 02:11 | 22.48232 | -153.64854 | 45102 ft | 451 kts | 243° |
| 2026-04-29 02:12 | 22.45206 | -153.70768 | 45095 ft | 448 kts | 243° |
| 2026-04-29 02:12 | 22.42196 | -153.76642 | 45083 ft | 447 kts | 243° |
| 2026-04-29 02:13 | 22.39181 | -153.82524 | 45094 ft | 447 kts | 243° |
| 2026-04-29 02:13 | 22.36450 | -153.88516 | 45088 ft | 443 kts | 252° |
| 2026-04-29 02:14 | 22.34971 | -153.94958 | 45097 ft | 443 kts | 259° |
| 2026-04-29 02:14 | 22.33653 | -154.01497 | 45101 ft | 445 kts | 259° |
| 2026-04-29 02:15 | 22.32344 | -154.08058 | 45106 ft | 448 kts | 259° |
| 2026-04-29 02:15 | 22.31021 | -154.14638 | 45099 ft | 448 kts | 259° |
| 2026-04-29 02:16 | 22.29717 | -154.21117 | 44317 ft | 440 kts | 259° |
| 2026-04-29 02:16 | 22.29070 | -154.24328 | 43589 ft | 433 kts | 259° |
| 2026-04-29 02:16 | 22.28435 | -154.27476 | 42940 ft | 424 kts | 259° |
| 2026-04-29 02:17 | 22.27812 | -154.30556 | 42277 ft | 416 kts | 259° |
| 2026-04-29 02:17 | 22.27200 | -154.33587 | 41649 ft | 408 kts | 259° |
| 2026-04-29 02:17 | 22.26600 | -154.36550 | 41047 ft | 400 kts | 259° |
| 2026-04-29 02:17 | 22.26011 | -154.39460 | 40421 ft | 394 kts | 259° |
| 2026-04-29 02:18 | 22.25431 | -154.42319 | 39854 ft | 386 kts | 259° |
| 2026-04-29 02:18 | 22.24863 | -154.45119 | 39292 ft | 379 kts | 259° |
| 2026-04-29 02:18 | 22.24304 | -154.47873 | 38774 ft | 370 kts | 259° |
| 2026-04-29 02:18 | 22.23758 | -154.50557 | 38105 ft | 363 kts | 258° |
| 2026-04-29 02:19 | 22.23218 | -154.53213 | 37305 ft | 361 kts | 258° |
| 2026-04-29 02:19 | 22.22680 | -154.55854 | 36557 ft | 359 kts | 258° |
| 2026-04-29 02:19 | 22.22146 | -154.58474 | 35838 ft | 356 kts | 258° |
| 2026-04-29 02:19 | 22.21622 | -154.61043 | 35145 ft | 354 kts | 257° |
| 2026-04-29 02:20 | 22.21093 | -154.63633 | 34455 ft | 352 kts | 257° |
| 2026-04-29 02:20 | 22.20567 | -154.66209 | 33750 ft | 351 kts | 257° |
| 2026-04-29 02:20 | 22.20044 | -154.68765 | 33059 ft | 347 kts | 257° |
| 2026-04-29 02:20 | 22.19524 | -154.71303 | 32399 ft | 344 kts | 257° |
| 2026-04-29 02:21 | 22.19009 | -154.73819 | 31750 ft | 341 kts | 258° |
| 2026-04-29 02:21 | 22.18499 | -154.76306 | 31115 ft | 338 kts | 258° |
| 2026-04-29 02:21 | 22.17994 | -154.78764 | 30506 ft | 335 kts | 258° |
| 2026-04-29 02:21 | 22.17492 | -154.81207 | 29865 ft | 332 kts | 258° |
| 2026-04-29 02:22 | 22.16995 | -154.83630 | 29195 ft | 329 kts | 258° |
| 2026-04-29 02:22 | 22.16503 | -154.86019 | 28549 ft | 325 kts | 258° |
| 2026-04-29 02:22 | 22.16015 | -154.88389 | 27921 ft | 322 kts | 258° |
| 2026-04-29 02:22 | 22.15537 | -154.90708 | 27314 ft | 319 kts | 258° |
| 2026-04-29 02:23 | 22.15059 | -154.93031 | 26718 ft | 316 kts | 258° |
| 2026-04-29 02:23 | 22.14583 | -154.95337 | 26132 ft | 313 kts | 258° |
| 2026-04-29 02:23 | 22.14111 | -154.97623 | 25572 ft | 311 kts | 258° |
| 2026-04-29 02:23 | 22.13642 | -154.99884 | 25048 ft | 307 kts | 259° |
| 2026-04-29 02:24 | 22.13181 | -155.02118 | 24516 ft | 304 kts | 259° |
| 2026-04-29 02:24 | 22.12723 | -155.04337 | 23990 ft | 302 kts | 259° |
| 2026-04-29 02:24 | 22.12267 | -155.06537 | 23429 ft | 300 kts | 259° |
| 2026-04-29 02:25 | 22.11363 | -155.10897 | 22209 ft | 296 kts | 259° |
| 2026-04-29 02:25 | 22.10915 | -155.13058 | 21625 ft | 294 kts | 259° |
| 2026-04-29 02:25 | 22.10469 | -155.15204 | 21056 ft | 293 kts | 259° |
| 2026-04-29 02:25 | 22.10026 | -155.17337 | 20502 ft | 291 kts | 258° |
| 2026-04-29 02:26 | 22.09584 | -155.19461 | 19963 ft | 290 kts | 258° |
| 2026-04-29 02:26 | 22.09149 | -155.21552 | 19436 ft | 289 kts | 258° |
| 2026-04-29 02:26 | 22.08711 | -155.23658 | 18921 ft | 287 kts | 258° |
| 2026-04-29 02:26 | 22.08273 | -155.25757 | 18417 ft | 286 kts | 258° |
| 2026-04-29 02:27 | 22.07837 | -155.27849 | 17862 ft | 284 kts | 258° |
| 2026-04-29 02:27 | 22.07403 | -155.29925 | 17304 ft | 283 kts | 258° |
| 2026-04-29 02:27 | 22.06976 | -155.31970 | 17094 ft | 272 kts | 258° |
| 2026-04-29 02:27 | 22.06565 | -155.33939 | 17084 ft | 270 kts | 258° |
| 2026-04-29 02:28 | 22.06141 | -155.35972 | 17093 ft | 283 kts | 258° |
| 2026-04-29 02:28 | 22.05706 | -155.38052 | 17093 ft | 285 kts | 258° |
| 2026-04-29 02:28 | 22.05270 | -155.40130 | 17091 ft | 283 kts | 258° |
| 2026-04-29 02:28 | 22.04836 | -155.42201 | 17091 ft | 282 kts | 258° |
| 2026-04-29 02:29 | 22.04411 | -155.44233 | 17087 ft | 281 kts | 258° |
| 2026-04-29 02:29 | 22.03981 | -155.46279 | 17086 ft | 281 kts | 258° |
| 2026-04-29 02:29 | 22.03549 | -155.48340 | 17085 ft | 281 kts | 258° |
| 2026-04-29 02:29 | 22.03116 | -155.50398 | 17086 ft | 282 kts | 258° |
| 2026-04-29 02:30 | 22.02684 | -155.52458 | 17089 ft | 282 kts | 258° |
| 2026-04-29 02:30 | 22.02250 | -155.54521 | 17089 ft | 282 kts | 258° |
| 2026-04-29 02:30 | 22.01815 | -155.56589 | 17089 ft | 283 kts | 258° |
| 2026-04-29 02:30 | 22.01379 | -155.58656 | 17090 ft | 283 kts | 258° |
| 2026-04-29 02:31 | 22.00942 | -155.60729 | 17091 ft | 284 kts | 258° |
| 2026-04-29 02:31 | 22.00505 | -155.62805 | 17086 ft | 284 kts | 258° |
| 2026-04-29 02:31 | 22.00066 | -155.64884 | 17086 ft | 283 kts | 258° |
| 2026-04-29 02:31 | 21.99634 | -155.66931 | 17086 ft | 284 kts | 258° |
| 2026-04-29 02:32 | 21.99197 | -155.69002 | 17086 ft | 284 kts | 258° |
| 2026-04-29 02:32 | 21.98758 | -155.71077 | 17088 ft | 284 kts | 258° |
| 2026-04-29 02:32 | 21.98319 | -155.73150 | 17089 ft | 284 kts | 258° |
| 2026-04-29 02:32 | 21.97881 | -155.75220 | 17085 ft | 283 kts | 258° |
| 2026-04-29 02:33 | 21.97445 | -155.77281 | 17083 ft | 282 kts | 258° |
| 2026-04-29 02:33 | 21.97007 | -155.79345 | 17082 ft | 282 kts | 258° |
| 2026-04-29 02:33 | 21.96570 | -155.81404 | 17083 ft | 282 kts | 258° |
| 2026-04-29 02:33 | 21.96132 | -155.83468 | 17083 ft | 282 kts | 258° |
| 2026-04-29 02:34 | 21.95696 | -155.85522 | 17083 ft | 282 kts | 258° |
| 2026-04-29 02:34 | 21.95258 | -155.87584 | 17084 ft | 282 kts | 258° |
| 2026-04-29 02:34 | 21.94820 | -155.89646 | 17082 ft | 283 kts | 258° |
| 2026-04-29 02:34 | 21.94379 | -155.91719 | 17085 ft | 284 kts | 258° |
| 2026-04-29 02:35 | 21.93936 | -155.93793 | 17085 ft | 284 kts | 258° |
| 2026-04-29 02:35 | 21.93644 | -155.95167 | 17085 ft | 285 kts | 258° |
| 2026-04-29 02:35 | 21.93200 | -155.97251 | 17086 ft | 285 kts | 258° |
| 2026-04-29 02:35 | 21.92756 | -155.99334 | 17086 ft | 285 kts | 258° |
| 2026-04-29 02:36 | 21.92313 | -156.01407 | 17085 ft | 284 kts | 258° |
| 2026-04-29 02:36 | 21.91870 | -156.03483 | 17085 ft | 284 kts | 258° |
| 2026-04-29 02:36 | 21.91427 | -156.05555 | 17084 ft | 283 kts | 258° |
| 2026-04-29 02:36 | 21.90986 | -156.07618 | 17080 ft | 282 kts | 258° |
| 2026-04-29 02:37 | 21.90545 | -156.09674 | 17075 ft | 282 kts | 259° |
| 2026-04-29 02:37 | 21.90106 | -156.11727 | 17076 ft | 279 kts | 259° |
| 2026-04-29 02:37 | 21.89720 | -156.13505 | 17267 ft | 244 kts | 259° |
| 2026-04-29 02:37 | 21.89314 | -156.15427 | 16933 ft | 264 kts | 259° |
| 2026-04-29 02:38 | 21.88896 | -156.17383 | 17058 ft | 279 kts | 258° |
| 2026-04-29 02:38 | 21.88449 | -156.19466 | 17090 ft | 287 kts | 258° |
| 2026-04-29 02:38 | 21.88005 | -156.21518 | 17095 ft | 283 kts | 258° |
| 2026-04-29 02:38 | 21.87564 | -156.23570 | 17085 ft | 281 kts | 259° |
| 2026-04-29 02:39 | 21.87125 | -156.25616 | 17091 ft | 281 kts | 259° |
| 2026-04-29 02:39 | 21.86685 | -156.27666 | 17084 ft | 280 kts | 259° |
| 2026-04-29 02:39 | 21.86244 | -156.29711 | 17087 ft | 280 kts | 259° |
| 2026-04-29 02:39 | 21.85804 | -156.31753 | 17084 ft | 280 kts | 259° |
| 2026-04-29 02:40 | 21.85366 | -156.33793 | 17088 ft | 279 kts | 259° |
| 2026-04-29 02:40 | 21.84925 | -156.35839 | 17096 ft | 279 kts | 259° |
| 2026-04-29 02:40 | 21.84523 | -156.37679 | 17305 ft | 243 kts | 259° |
| 2026-04-29 02:40 | 21.84191 | -156.39244 | 17055 ft | 270 kts | 260° |
| 2026-04-29 02:41 | 21.83769 | -156.41235 | 17070 ft | 278 kts | 259° |
| 2026-04-29 02:41 | 21.83324 | -156.43284 | 17085 ft | 283 kts | 259° |
| 2026-04-29 02:41 | 21.82873 | -156.45353 | 17080 ft | 282 kts | 259° |
| 2026-04-29 02:41 | 21.82428 | -156.47408 | 17079 ft | 281 kts | 259° |
| 2026-04-29 02:42 | 21.81986 | -156.49458 | 17029 ft | 282 kts | 259° |
| 2026-04-29 02:42 | 21.81543 | -156.51508 | 17030 ft | 280 kts | 259° |
| 2026-04-29 02:42 | 21.81108 | -156.53516 | 17028 ft | 279 kts | 259° |
| 2026-04-29 02:42 | 21.80667 | -156.55553 | 17029 ft | 280 kts | 259° |
| 2026-04-29 02:43 | 21.80223 | -156.57603 | 17027 ft | 282 kts | 260° |
| 2026-04-29 02:43 | 21.79777 | -156.59661 | 17028 ft | 283 kts | 260° |
| 2026-04-29 02:43 | 21.79329 | -156.61725 | 17030 ft | 284 kts | 260° |
| 2026-04-29 02:43 | 21.78878 | -156.63795 | 17030 ft | 283 kts | 260° |
| 2026-04-29 02:44 | 21.78431 | -156.65854 | 17029 ft | 282 kts | 260° |
| 2026-04-29 02:44 | 21.77984 | -156.67909 | 17029 ft | 282 kts | 260° |
| 2026-04-29 02:44 | 21.77539 | -156.69956 | 17028 ft | 281 kts | 260° |
| 2026-04-29 02:44 | 21.77093 | -156.72003 | 17027 ft | 280 kts | 260° |
| 2026-04-29 02:45 | 21.76649 | -156.74043 | 17028 ft | 280 kts | 260° |
| 2026-04-29 02:45 | 21.76204 | -156.76083 | 17027 ft | 280 kts | 260° |
| 2026-04-29 02:45 | 21.75759 | -156.78127 | 17028 ft | 282 kts | 260° |
| 2026-04-29 02:45 | 21.75309 | -156.80187 | 17030 ft | 283 kts | 260° |
| 2026-04-29 02:46 | 21.74858 | -156.82251 | 17030 ft | 284 kts | 260° |
| 2026-04-29 02:46 | 21.74406 | -156.84320 | 17031 ft | 283 kts | 260° |
| 2026-04-29 02:46 | 21.73956 | -156.86374 | 17030 ft | 282 kts | 260° |
| 2026-04-29 02:46 | 21.73506 | -156.88432 | 17029 ft | 282 kts | 260° |
| 2026-04-29 02:47 | 21.73057 | -156.90482 | 17012 ft | 282 kts | 260° |
| 2026-04-29 02:47 | 21.72606 | -156.92546 | 17019 ft | 285 kts | 260° |
| 2026-04-29 02:47 | 21.72150 | -156.94628 | 17022 ft | 287 kts | 260° |
| 2026-04-29 02:47 | 21.71697 | -156.96690 | 17023 ft | 286 kts | 260° |
| 2026-04-29 02:48 | 21.71240 | -156.98770 | 17022 ft | 285 kts | 260° |
| 2026-04-29 02:48 | 21.70785 | -157.00842 | 17021 ft | 284 kts | 260° |
| 2026-04-29 02:48 | 21.70331 | -157.02907 | 17023 ft | 283 kts | 260° |
| 2026-04-29 02:48 | 21.69879 | -157.04963 | 17022 ft | 283 kts | 260° |
| 2026-04-29 02:49 | 21.69425 | -157.07029 | 17025 ft | 284 kts | 260° |
| 2026-04-29 02:49 | 21.68969 | -157.09102 | 17026 ft | 285 kts | 260° |
| 2026-04-29 02:49 | 21.68510 | -157.11184 | 17028 ft | 286 kts | 260° |
| 2026-04-29 02:49 | 21.68049 | -157.13276 | 17029 ft | 287 kts | 260° |
| 2026-04-29 02:50 | 21.67589 | -157.15359 | 17024 ft | 286 kts | 260° |
| 2026-04-29 02:50 | 21.67087 | -157.17426 | 17002 ft | 287 kts | 255° |
| 2026-04-29 02:50 | 21.66217 | -157.19383 | 16853 ft | 294 kts | 243° |
| 2026-04-29 02:50 | 21.64991 | -157.21134 | 16466 ft | 293 kts | 234° |
| 2026-04-29 02:51 | 21.63664 | -157.22817 | 15815 ft | 296 kts | 233° |
| 2026-04-29 02:51 | 21.62353 | -157.24487 | 15287 ft | 295 kts | 233° |
| 2026-04-29 02:51 | 21.61043 | -157.26171 | 14802 ft | 292 kts | 233° |
| 2026-04-29 02:51 | 21.59745 | -157.27841 | 14322 ft | 290 kts | 233° |
| 2026-04-29 02:52 | 21.58459 | -157.29492 | 13837 ft | 287 kts | 233° |
| 2026-04-29 02:52 | 21.57178 | -157.31132 | 13285 ft | 286 kts | 233° |
| 2026-04-29 02:52 | 21.55902 | -157.32766 | 12710 ft | 286 kts | 233° |
| 2026-04-29 02:52 | 21.54624 | -157.34406 | 12159 ft | 285 kts | 232° |
| 2026-04-29 02:53 | 21.53350 | -157.36038 | 11651 ft | 284 kts | 233° |
| 2026-04-29 02:53 | 21.52077 | -157.37668 | 11085 ft | 286 kts | 232° |
| 2026-04-29 02:53 | 21.50797 | -157.39310 | 10608 ft | 285 kts | 232° |
| 2026-04-29 02:53 | 21.49544 | -157.40913 | 10165 ft | 283 kts | 232° |
| 2026-04-29 02:54 | 21.48286 | -157.42522 | 10024 ft | 277 kts | 232° |
| 2026-04-29 02:54 | 21.47034 | -157.44125 | 10027 ft | 283 kts | 232° |
| 2026-04-29 02:54 | 21.45756 | -157.45759 | 10029 ft | 287 kts | 231° |
| 2026-04-29 02:54 | 21.44462 | -157.47412 | 10026 ft | 290 kts | 232° |
| 2026-04-29 02:55 | 21.43154 | -157.49084 | 10031 ft | 291 kts | 232° |
| 2026-04-29 02:55 | 21.41899 | -157.50754 | 10015 ft | 283 kts | 237° |
| 2026-04-29 02:55 | 21.41027 | -157.52631 | 10003 ft | 280 kts | 252° |
| 2026-04-29 02:55 | 21.40308 | -157.54569 | 10007 ft | 285 kts | 249° |
| 2026-04-29 02:56 | 21.39548 | -157.56537 | 10003 ft | 287 kts | 250° |
| 2026-04-29 02:56 | 21.38790 | -157.58514 | 10004 ft | 284 kts | 250° |
| 2026-04-29 02:56 | 21.38044 | -157.60479 | 9985 ft | 281 kts | 251° |
| 2026-04-29 02:56 | 21.37304 | -157.62425 | 9434 ft | 283 kts | 249° |
| 2026-04-29 02:57 | 21.36565 | -157.64361 | 9026 ft | 279 kts | 249° |
| 2026-04-29 02:57 | 21.35835 | -157.66270 | 8625 ft | 275 kts | 251° |
| 2026-04-29 02:57 | 21.35113 | -157.68166 | 8179 ft | 274 kts | 250° |
| 2026-04-29 02:57 | 21.34400 | -157.70031 | 8008 ft | 265 kts | 249° |
| 2026-04-29 02:58 | 21.33707 | -157.71847 | 8005 ft | 266 kts | 250° |
| 2026-04-29 02:58 | 21.32997 | -157.73708 | 8012 ft | 271 kts | 249° |
| 2026-04-29 02:58 | 21.32277 | -157.75591 | 8000 ft | 272 kts | 248° |
| 2026-04-29 02:58 | 21.31561 | -157.77442 | 8005 ft | 273 kts | 250° |
| 2026-04-29 02:59 | 21.30839 | -157.79327 | 8005 ft | 274 kts | 249° |
| 2026-04-29 02:59 | 21.30116 | -157.81220 | 8007 ft | 273 kts | 249° |
| 2026-04-29 02:59 | 21.29389 | -157.83101 | 8005 ft | 274 kts | 250° |
| 2026-04-29 02:59 | 21.28652 | -157.84990 | 7998 ft | 278 kts | 248° |
| 2026-04-29 03:00 | 21.27581 | -157.86728 | 7883 ft | 282 kts | 229° |
| 2026-04-29 03:00 | 21.26244 | -157.88244 | 7704 ft | 277 kts | 227° |
| 2026-04-29 03:00 | 21.24926 | -157.89749 | 7492 ft | 278 kts | 227° |
| 2026-04-29 03:00 | 21.23614 | -157.91263 | 7277 ft | 273 kts | 227° |
| 2026-04-29 03:01 | 21.22339 | -157.92727 | 7049 ft | 264 kts | 227° |
| 2026-04-29 03:01 | 21.21106 | -157.94139 | 6996 ft | 254 kts | 228° |
| 2026-04-29 03:01 | 21.19888 | -157.95542 | 6556 ft | 259 kts | 228° |
| 2026-04-29 03:01 | 21.18666 | -157.96949 | 6268 ft | 254 kts | 227° |
| 2026-04-29 03:02 | 21.17730 | -157.98024 | 5963 ft | 254 kts | 227° |
| 2026-04-29 03:06 | 21.17497 | -157.98295 | 5867 ft | 251 kts | 231° |
| 2026-04-29 03:06 | 21.16867 | -157.99899 | 5906 ft | 230 kts | 259° |
| 2026-04-29 03:07 | 21.16837 | -158.01553 | 5843 ft | 215 kts | 280° |
| 2026-04-29 03:07 | 21.17456 | -158.02901 | 5800 ft | 196 kts | 325° |
| 2026-04-29 03:07 | 21.18610 | -158.03671 | 5456 ft | 200 kts | 333° |
| 2026-04-29 03:07 | 21.19883 | -158.04348 | 5105 ft | 207 kts | 339° |
| 2026-04-29 03:08 | 21.21248 | -158.04930 | 4627 ft | 215 kts | 342° |
| 2026-04-29 03:08 | 21.22681 | -158.05482 | 4264 ft | 218 kts | 344° |
| 2026-04-29 03:08 | 21.24123 | -158.05842 | 4109 ft | 209 kts | 355° |
| 2026-04-29 03:08 | 21.25550 | -158.05880 | 3920 ft | 203 kts | 8° |
| 2026-04-29 03:09 | 21.26888 | -158.05396 | 3475 ft | 210 kts | 33° |
| 2026-04-29 03:09 | 21.27957 | -158.04285 | 2982 ft | 217 kts | 54° |
| 2026-04-29 03:09 | 21.28664 | -158.02882 | 2408 ft | 228 kts | 62° |
| 2026-04-29 03:09 | 21.29390 | -158.01224 | 1855 ft | 251 kts | 65° |
| 2026-04-29 03:10 | 21.30178 | -157.99656 | 1874 ft | 231 kts | 60° |
| 2026-04-29 03:10 | 21.30797 | -157.98143 | 1476 ft | 187 kts | 74° |
| 2026-04-29 03:10 | 21.30679 | -157.96974 | 983 ft | 147 kts | 100° |
| 2026-04-29 03:10 | 21.30327 | -157.96020 | 1478 ft | 139 kts | 106° |
| 2026-04-29 03:11 | 21.29761 | -157.95110 | 2023 ft | 153 kts | 120° |
| 2026-04-29 03:11 | 21.28882 | -157.94265 | 2514 ft | 203 kts | 140° |
| 2026-04-29 03:11 | 21.27355 | -157.93459 | 3152 ft | 281 kts | 154° |
| 2026-04-29 03:11 | 21.25361 | -157.92538 | 3546 ft | 338 kts | 147° |
| 2026-04-29 03:12 | 21.23633 | -157.91054 | 3411 ft | 302 kts | 140° |
| 2026-04-29 03:12 | 21.21799 | -157.90149 | 3267 ft | 284 kts | 165° |
| 2026-04-29 03:12 | 21.19883 | -157.89950 | 3089 ft | 268 kts | 175° |
| 2026-04-29 03:12 | 21.18076 | -157.90007 | 2993 ft | 250 kts | 173° |
| 2026-04-29 03:13 | 21.16409 | -157.89833 | 2991 ft | 232 kts | 168° |
| 2026-04-29 03:13 | 21.14853 | -157.89639 | 2991 ft | 217 kts | 169° |
| 2026-04-29 03:13 | 21.13387 | -157.89475 | 2988 ft | 206 kts | 169° |
| 2026-04-29 03:13 | 21.11999 | -157.89645 | 2982 ft | 203 kts | 203° |
| 2026-04-29 03:14 | 21.11044 | -157.90690 | 2983 ft | 196 kts | 249° |
| 2026-04-29 03:14 | 21.10999 | -157.92056 | 2990 ft | 180 kts | 295° |
| 2026-04-29 03:14 | 21.11727 | -157.93055 | 3000 ft | 165 kts | 323° |
| 2026-04-29 03:14 | 21.12543 | -157.93892 | 2996 ft | 160 kts | 323° |
| 2026-04-29 03:15 | 21.13309 | -157.94702 | 2995 ft | 154 kts | 323° |
| 2026-04-29 03:15 | 21.14040 | -157.95489 | 2991 ft | 144 kts | 324° |
| 2026-04-29 03:15 | 21.14729 | -157.96229 | 2989 ft | 137 kts | 322° |
| 2026-04-29 03:15 | 21.15381 | -157.96946 | 2976 ft | 134 kts | 321° |
| 2026-04-29 03:16 | 21.16153 | -157.97759 | 3132 ft | 182 kts | 322° |
| 2026-04-29 03:16 | 21.17300 | -157.98597 | 3678 ft | 217 kts | 332° |
| 2026-04-29 03:16 | 21.18819 | -157.99239 | 3879 ft | 259 kts | 356° |
| 2026-04-29 03:16 | 21.20527 | -157.98983 | 3883 ft | 233 kts | 21° |
| 2026-04-29 03:17 | 21.21945 | -157.98408 | 3778 ft | 209 kts | 11° |
| 2026-04-29 03:17 | 21.23440 | -157.98524 | 3195 ft | 241 kts | 351° |
| 2026-04-29 03:17 | 21.25047 | -157.98991 | 2275 ft | 215 kts | 347° |
| 2026-04-29 03:17 | 21.26109 | -157.99408 | 2222 ft | 133 kts | 347° |
| 2026-04-29 03:18 | 21.26916 | -157.99688 | 1786 ft | 120 kts | 355° |
| 2026-04-29 03:18 | 21.27761 | -157.99870 | 1255 ft | 121 kts | 354° |
| 2026-04-29 03:18 | 21.28580 | -157.99886 | 1194 ft | 129 kts | 18° |
| 2026-04-29 03:18 | 21.29434 | -157.99444 | 1449 ft | 131 kts | 35° |
| 2026-04-29 03:19 | 21.30088 | -157.98880 | 1330 ft | 112 kts | 46° |
| 2026-04-29 03:19 | 21.30565 | -157.98283 | 1140 ft | 99 kts | 53° |
| 2026-04-29 03:19 | 21.30927 | -157.97657 | 921 ft | 97 kts | 63° |
| 2026-04-29 03:19 | 21.31073 | -157.96924 | 643 ft | 104 kts | 83° |
| 2026-04-29 03:20 | 21.30939 | -157.96142 | 350 ft | 109 kts | 97° |
| 2026-04-29 03:20 | 21.30682 | -157.95382 | 201 ft | 100 kts | 94° |
| 2026-04-29 03:20 | 21.30655 | -157.94731 | 89 ft | 77 kts | 79° |